Observation data for Stamford on 06/16/2019      Previous  Date  Next       Current Mesonet Observations  Soil Data  Daily Summary Page  Observations in Plain Language
KST2 160500Z 04007KT 22/16 A2982 RMK A01 T02160162  RH  071%=      5-min Rain = 0
KST2 160501Z 05010KT 22/16 A2981 RMK A01 T02160163  RH  071%=      5-min Rain = 0
KST2 160502Z 05013KT 22/16 A2979 RMK A01 T02170163  RH  072%=      5-min Rain = 0
KST2 160503Z 06017KT 22/16 A2978 RMK A01 T02170164  RH  072%=      5-min Rain = 0
KST2 160504Z 06018KT 22/17 A2977 RMK A01 T02170165  RH  072%=      5-min Rain = 0
KST2 160505Z 07018KT 22/17 A2976 RMK A01 T02180165  RH  072%=      5-min Rain = 0
KST2 160506Z 07017KT 22/17 A2977 RMK A01 T02180166  RH  072%=      5-min Rain = 0
KST2 160507Z 08018KT 22/17 A2977 RMK A01 T02180167  RH  072%=      5-min Rain = 0
KST2 160508Z 08018KT 22/17 A2978 RMK A01 T02190167  RH  072%=      5-min Rain = 0
KST2 160509Z 08014KT 22/17 A2978 RMK A01 T02190167  RH  073%=      5-min Rain = 0
KST2 160510Z 08014KT 22/17 A2978 RMK A01 T02180168  RH  073%=      5-min Rain = 0
KST2 160511Z 08015KT 22/17 A2978 RMK A01 T02190168  RH  073%=      5-min Rain = 0
KST2 160512Z 08015KT 22/17 A2978 RMK A01 T02180167  RH  073%=      5-min Rain = 0
KST2 160513Z 08016KT 22/17 A2978 RMK A01 T02180167  RH  073%=      5-min Rain = 0
KST2 160514Z 08015KT 22/17 A2978 RMK A01 T02180167  RH  073%=      5-min Rain = 0
KST2 160515Z 08014KT 22/17 A2978 RMK A01 T02170167  RH  073%=      5-min Rain = 0
KST2 160516Z 08013KT 22/17 A2977 RMK A01 T02170168  RH  074%=      5-min Rain = 0
KST2 160517Z 08014KT 22/17 A2977 RMK A01 T02170168  RH  074%=      5-min Rain = 0
KST2 160518Z 09016KT 22/17 A2977 RMK A01 T02170168  RH  074%=      5-min Rain = 0
KST2 160519Z 10014KT 22/17 A2977 RMK A01 T02170168  RH  074%=      5-min Rain = 0
KST2 160520Z 09013KT 22/17 A2977 RMK A01 T02160168  RH  074%=      5-min Rain = 0
KST2 160521Z 09012KT 22/17 A2977 RMK A01 T02160169  RH  074%=      5-min Rain = 0
KST2 160522Z 09012KT 22/17 A2977 RMK A01 T02160169  RH  074%=      5-min Rain = 0
KST2 160523Z 09012KT 22/17 A2977 RMK A01 T02160169  RH  075%=      5-min Rain = 0
KST2 160524Z 10012KT 22/17 A2977 RMK A01 T02160169  RH  075%=      5-min Rain = 0
KST2 160525Z 10009KT 22/17 A2978 RMK A01 T02160170  RH  075%=      5-min Rain = 0
KST2 160526Z 10008KT 22/17 A2978 RMK A01 T02160170  RH  075%=      5-min Rain = 0
KST2 160527Z 11006KT 22/17 A2979 RMK A01 T02160170  RH  075%=      5-min Rain = 0
KST2 160528Z 11006KT 22/17 A2979 RMK A01 T02160170  RH  075%=      5-min Rain = 0
KST2 160529Z 11007KT 22/17 A2979 RMK A01 T02160171  RH  075%=      5-min Rain = 0
KST2 160530Z 10008KT 22/17 A2979 RMK A01 T02170172  RH  075%=      5-min Rain = 0
KST2 160531Z 11006KT 22/17 A298 RMK A01 T02170172  RH  075%=      5-min Rain = 0
KST2 160532Z 12007KT 22/17 A298 RMK A01 T02170172  RH  076%=      5-min Rain = 0
KST2 160533Z 13007KT 22/17 A2981 RMK A01 T02180173  RH  076%=      5-min Rain = 0
KST2 160534Z 14005KT 22/17 A2981 RMK A01 T02180173  RH  076%=      5-min Rain = 0
KST2 160535Z 14003KT 22/17 A2981 RMK A01 T02180173  RH  076%=      5-min Rain = 0
KST2 160536Z 15002KT 22/17 A2981 RMK A01 T02180173  RH  076%=      5-min Rain = 0
KST2 160537Z 13004KT 22/17 A2981 RMK A01 T02180174  RH  076%=      5-min Rain = 0
KST2 160538Z 12003KT 22/17 A2982 RMK A01 T02180174  RH  076%=      5-min Rain = 0
KST2 160539Z 13003KT 22/17 A2982 RMK A01 T02180174  RH  076%=      5-min Rain = 0
KST2 160540Z 10003KT 22/18 A2982 RMK A01 T02180175  RH  076%=      5-min Rain = 0
KST2 160541Z 09003KT 22/17 A2982 RMK A01 T02180174  RH  076%=      5-min Rain = 0
KST2 160542Z 09003KT 22/18 A2982 RMK A01 T02180175  RH  076%=      5-min Rain = 0
KST2 160543Z 08004KT 22/18 A2982 RMK A01 T02180175  RH  077%=      5-min Rain = 0
KST2 160544Z 06005KT 22/18 A2982 RMK A01 T02170175  RH  077%=      5-min Rain = 0
KST2 160545Z 07005KT 22/18 A2982 RMK A01 T02170175  RH  077%=      5-min Rain = 0
KST2 160546Z 07006KT 22/18 A2982 RMK A01 T02170175  RH  077%=      5-min Rain = 0
KST2 160547Z 07007KT 22/18 A2982 RMK A01 T02180175  RH  077%=      5-min Rain = 0
KST2 160548Z 08007KT 22/18 A2982 RMK A01 T02180176  RH  077%=      5-min Rain = 0
KST2 160549Z 08006KT 22/18 A2982 RMK A01 T02180176  RH  077%=      5-min Rain = 0
KST2 160550Z 08006KT 22/18 A2982 RMK A01 T02180176  RH  077%=      5-min Rain = 0
KST2 160551Z 08006KT 22/18 A2982 RMK A01 T02180176  RH  077%=      5-min Rain = 0
KST2 160552Z 08007KT 22/18 A2982 RMK A01 T02180176  RH  077%=      5-min Rain = 0
KST2 160553Z 08006KT 22/18 A2982 RMK A01 T02180176  RH  077%=      5-min Rain = 0
KST2 160554Z 08006KT 22/18 A2982 RMK A01 T02180176  RH  077%=      5-min Rain = 0
KST2 160555Z 08006KT 22/18 A2982 RMK A01 T02180176  RH  077%=      5-min Rain = 0
KST2 160556Z 09006KT 22/18 A2982 RMK A01 T02180176  RH  077%=      5-min Rain = 0
KST2 160557Z 08007KT 22/18 A2982 RMK A01 T02180176  RH  077%=      5-min Rain = 0
KST2 160558Z 09008KT 22/18 A2982 RMK A01 T02180176  RH  077%=      5-min Rain = 0
KST2 160559Z 08008KT 22/18 A2982 RMK A01 T02180176  RH  077%=      5-min Rain = 0
KST2 160600Z 08008KT 22/18 A2982 RMK A01 T02180176  RH  077%=      5-min Rain = 0
KST2 160601Z 07007KT 22/18 A2982 RMK A01 T02180176  RH  077%=      5-min Rain = 0
KST2 160602Z 07009KT 22/18 A2983 RMK A01 T02180176  RH  077%=      5-min Rain = 0
KST2 160603Z 07010KT 22/18 A2983 RMK A01 T02180176  RH  077%=      5-min Rain = 0
KST2 160604Z 06010KT 22/18 A2983 RMK A01 T02180176  RH  077%=      5-min Rain = 0
KST2 160605Z 05009KT 22/18 A2983 RMK A01 T02180176  RH  077%=      5-min Rain = 0
KST2 160606Z 05008KT 22/18 A2983 RMK A01 T02170176  RH  077%=      5-min Rain = 0
KST2 160607Z 04009KT 22/18 A2983 RMK A01 T02170176  RH  077%=      5-min Rain = 0
KST2 160608Z 04009KT 22/18 A2983 RMK A01 T02170176  RH  077%=      5-min Rain = 0
KST2 160609Z 04007KT 22/18 A2983 RMK A01 T02170176  RH  077%=      5-min Rain = 0
KST2 160610Z 04006KT 22/18 A2983 RMK A01 T02170176  RH  078%=      5-min Rain = 0
KST2 160611Z 03005KT 22/18 A2983 RMK A01 T02160176  RH  078%=      5-min Rain = 0
KST2 160612Z 05007KT 22/18 A2983 RMK A01 T02160176  RH  078%=      5-min Rain = 0
KST2 160613Z 05006KT 22/18 A2983 RMK A01 T02160177  RH  078%=      5-min Rain = 0
KST2 160614Z 06007KT 22/18 A2983 RMK A01 T02160177  RH  078%=      5-min Rain = 0
KST2 160615Z 06007KT 22/18 A2983 RMK A01 T02160176  RH  078%=      5-min Rain = 0
KST2 160616Z 06008KT 22/18 A2983 RMK A01 T02170177  RH  078%=      5-min Rain = 0
KST2 160617Z 06009KT 22/18 A2983 RMK A01 T02170177  RH  078%=      5-min Rain = 0
KST2 160618Z 06009KT 22/18 A2983 RMK A01 T02170177  RH  078%=      5-min Rain = 0
KST2 160619Z 06009KT 22/18 A2983 RMK A01 T02170176  RH  078%=      5-min Rain = 0
KST2 160620Z 06008KT 22/18 A2983 RMK A01 T02170176  RH  078%=      5-min Rain = 0
KST2 160621Z 05008KT 22/18 A2983 RMK A01 T02170177  RH  078%=      5-min Rain = 0
KST2 160622Z 06009KT 22/18 A2983 RMK A01 T02160176  RH  078%=      5-min Rain = 0
KST2 160623Z 07009KT 22/18 A2983 RMK A01 T02160176  RH  078%=      5-min Rain = 0
KST2 160624Z 06009KT 22/18 A2983 RMK A01 T02160176  RH  078%=      5-min Rain = 0
KST2 160625Z 07008KT 22/18 A2983 RMK A01 T02150176  RH  078%=      5-min Rain = 0
KST2 160626Z 07010KT 22/18 A2983 RMK A01 T02150176  RH  078%=      5-min Rain = 0
KST2 160627Z 07008KT 22/18 A2983 RMK A01 T02150176  RH  078%=      5-min Rain = 0
KST2 160628Z 07009KT 21/18 A2983 RMK A01 T02140175  RH  078%=      5-min Rain = 0
KST2 160629Z 07008KT 21/18 A2983 RMK A01 T02140175  RH  078%=      5-min Rain = 0
KST2 160630Z 07008KT 21/18 A2983 RMK A01 T02140175  RH  079%=      5-min Rain = 0
KST2 160631Z 08007KT 21/18 A2983 RMK A01 T02140175  RH  079%=      5-min Rain = 0
KST2 160632Z 07007KT 21/18 A2983 RMK A01 T02140176  RH  079%=      5-min Rain = 0
KST2 160633Z 07006KT 21/18 A2983 RMK A01 T02140176  RH  079%=      5-min Rain = 0
KST2 160634Z 07007KT 21/18 A2983 RMK A01 T02140176  RH  079%=      5-min Rain = 0
KST2 160635Z 07007KT 21/18 A2983 RMK A01 T02140176  RH  079%=      5-min Rain = 0
KST2 160636Z 07006KT 21/18 A2984 RMK A01 T02140176  RH  079%=      5-min Rain = 0
KST2 160637Z 06005KT 21/18 A2984 RMK A01 T02130176  RH  079%=      5-min Rain = 0
KST2 160638Z 06004KT 21/18 A2984 RMK A01 T02130176  RH  079%=      5-min Rain = 0
KST2 160639Z 05004KT 21/18 A2984 RMK A01 T02130176  RH  079%=      5-min Rain = 0
KST2 160640Z 05005KT 21/18 A2984 RMK A01 T02130176  RH  079%=      5-min Rain = 0
KST2 160641Z 06005KT 21/18 A2984 RMK A01 T02130176  RH  079%=      5-min Rain = 0
KST2 160642Z 07005KT 21/18 A2984 RMK A01 T02130176  RH  079%=      5-min Rain = 0
KST2 160643Z 08005KT 21/18 A2984 RMK A01 T02130176  RH  080%=      5-min Rain = 0
KST2 160644Z 08004KT 21/18 A2984 RMK A01 T02120176  RH  080%=      5-min Rain = 0
KST2 160645Z 09004KT 21/18 A2984 RMK A01 T02120176  RH  080%=      5-min Rain = 0
KST2 160646Z 09004KT 21/18 A2984 RMK A01 T02120176  RH  080%=      5-min Rain = 0
KST2 160647Z 08004KT 21/18 A2984 RMK A01 T02120176  RH  080%=      5-min Rain = 0
KST2 160648Z 08006KT 21/18 A2983 RMK A01 T02120176  RH  080%=      5-min Rain = 0
KST2 160649Z 08004KT 21/18 A2983 RMK A01 T02120176  RH  080%=      5-min Rain = 0
KST2 160650Z 08005KT 21/18 A2983 RMK A01 T02120176  RH  080%=      5-min Rain = 0
KST2 160651Z 09005KT 21/18 A2984 RMK A01 T02120176  RH  080%=      5-min Rain = 0
KST2 160652Z 08006KT 21/18 A2984 RMK A01 T02120176  RH  080%=      5-min Rain = 0
KST2 160653Z 08005KT 21/18 A2983 RMK A01 T02120176  RH  080%=      5-min Rain = 0
KST2 160654Z 08006KT 21/18 A2983 RMK A01 T02120176  RH  080%=      5-min Rain = 0
KST2 160655Z 07006KT 21/18 A2984 RMK A01 T02120176  RH  080%=      5-min Rain = 0
KST2 160656Z 08006KT 21/18 A2984 RMK A01 T02120176  RH  080%=      5-min Rain = 0
KST2 160657Z 07005KT 21/18 A2984 RMK A01 T02120176  RH  080%=      5-min Rain = 0
KST2 160658Z 07006KT 21/18 A2984 RMK A01 T02120177  RH  080%=      5-min Rain = 0
KST2 160659Z 06005KT 21/18 A2984 RMK A01 T02130177  RH  080%=      5-min Rain = 0
KST2 160700Z 05005KT 21/18 A2984 RMK A01 T02130177  RH  080%=      5-min Rain = 0
KST2 160701Z 04005KT 21/18 A2984 RMK A01 T02130177  RH  080%=      5-min Rain = 0
KST2 160702Z 03005KT 21/18 A2984 RMK A01 T02130177  RH  080%=      5-min Rain = 0
KST2 160703Z 02005KT 21/18 A2984 RMK A01 T02130178  RH  080%=      5-min Rain = 0
KST2 160704Z 02007KT 21/18 A2985 RMK A01 T02120178  RH  081%=      5-min Rain = 0
KST2 160705Z 02007KT 21/18 A2985 RMK A01 T02120178  RH  081%=      5-min Rain = 0
KST2 160706Z 01007KT 21/18 A2985 RMK A01 T02110177  RH  081%=      5-min Rain = 0
KST2 160707Z 01007KT 21/18 A2985 RMK A01 T02110178  RH  081%=      5-min Rain = 0
KST2 160708Z 01008KT 21/18 A2985 RMK A01 T02110178  RH  081%=      5-min Rain = 0
KST2 160709Z 01009KT 21/18 A2985 RMK A01 T02110178  RH  081%=      5-min Rain = 0
KST2 160710Z 01009KT 21/18 A2985 RMK A01 T02110178  RH  081%=      5-min Rain = 0
KST2 160711Z 02008KT 21/18 A2985 RMK A01 T02110177  RH  081%=      5-min Rain = 0
KST2 160712Z 02008KT 21/18 A2986 RMK A01 T02110178  RH  081%=      5-min Rain = 0
KST2 160713Z 02011KT 21/18 A2986 RMK A01 T02110178  RH  081%=      5-min Rain = 0
KST2 160714Z 02011KT 21/18 A2986 RMK A01 T02120179  RH  081%=      5-min Rain = 0
KST2 160715Z 03010KT 21/18 A2986 RMK A01 T02120179  RH  081%=      5-min Rain = 0
KST2 160716Z 03011KT 21/18 A2986 RMK A01 T02130179  RH  081%=      5-min Rain = 0
KST2 160717Z 04012KT 21/18 A2986 RMK A01 T02140180  RH  081%=      5-min Rain = 0
KST2 160718Z 03011KT 22/18 A2986 RMK A01 T02160181  RH  081%=      5-min Rain = 0
KST2 160719Z 03011KT 22/18 A2986 RMK A01 T02160181  RH  080%=      5-min Rain = 0
KST2 160720Z 03010G15KT 22/18 A2986 RMK A01 T02160181  RH  080%=      5-min Rain = 0
KST2 160721Z 03008KT 22/18 A2986 RMK A01 T02170181  RH  080%=      5-min Rain = 0
KST2 160722Z 04006KT 22/18 A2986 RMK A01 T02170181  RH  080%=      5-min Rain = 0
KST2 160723Z 04008KT 22/18 A2986 RMK A01 T02170181  RH  080%=      5-min Rain = 0
KST2 160724Z 04008KT 22/18 A2986 RMK A01 T02170182  RH  080%=      5-min Rain = 0
KST2 160725Z 04009KT 22/18 A2986 RMK A01 T02170182  RH  080%=      5-min Rain = 0
KST2 160726Z 04008KT 22/18 A2986 RMK A01 T02170181  RH  080%=      5-min Rain = 0
KST2 160727Z 03007KT 22/18 A2986 RMK A01 T02170181  RH  080%=      5-min Rain = 0
KST2 160728Z 01008KT 22/18 A2986 RMK A01 T02170181  RH  080%=      5-min Rain = 0
KST2 160729Z 01009KT 22/18 A2986 RMK A01 T02170181  RH  080%=      5-min Rain = 0
KST2 160730Z 02009KT 22/18 A2986 RMK A01 T02150181  RH  081%=      5-min Rain = 0
KST2 160731Z 02007KT 21/18 A2986 RMK A01 T02140180  RH  081%=      5-min Rain = 0
KST2 160732Z 03009KT 21/18 A2986 RMK A01 T02140180  RH  081%=      5-min Rain = 0
KST2 160733Z 03009KT 21/18 A2986 RMK A01 T02130180  RH  081%=      5-min Rain = 0
KST2 160734Z 03008KT 21/18 A2986 RMK A01 T02130180  RH  082%=      5-min Rain = 0
KST2 160735Z 02008KT 21/18 A2986 RMK A01 T02130180  RH  082%=      5-min Rain = 0
KST2 160736Z 01009KT 21/18 A2986 RMK A01 T02130180  RH  082%=      5-min Rain = 0
KST2 160737Z 01010KT 21/18 A2986 RMK A01 T02120180  RH  082%=      5-min Rain = 0
KST2 160738Z 02010KT 21/18 A2987 RMK A01 T02120180  RH  082%=      5-min Rain = 0
KST2 160739Z 04009KT 21/18 A2987 RMK A01 T02120180  RH  082%=      5-min Rain = 0
KST2 160740Z 04008KT 21/18 A2987 RMK A01 T02120180  RH  082%=      5-min Rain = 0
KST2 160741Z 04008KT 21/18 A2987 RMK A01 T02120180  RH  082%=      5-min Rain = 0
KST2 160742Z 04008KT 21/18 A2987 RMK A01 T02130180  RH  082%=      5-min Rain = 0
KST2 160743Z 04008KT 21/18 A2987 RMK A01 T02130180  RH  082%=      5-min Rain = 0
KST2 160744Z 04008KT 21/18 A2987 RMK A01 T02130180  RH  082%=      5-min Rain = 0
KST2 160745Z 05008KT 21/18 A2987 RMK A01 T02130181  RH  082%=      5-min Rain = 0
KST2 160746Z 06011KT 21/18 A2987 RMK A01 T02130181  RH  082%=      5-min Rain = 0
KST2 160747Z 06010KT 21/18 A2987 RMK A01 T02130181  RH  082%=      5-min Rain = 0
KST2 160748Z 07009KT 21/18 A2987 RMK A01 T02130181  RH  082%=      5-min Rain = 0
KST2 160749Z 08008KT 21/18 A2987 RMK A01 T02140181  RH  082%=      5-min Rain = 0
KST2 160750Z 06010KT 21/18 A2987 RMK A01 T02140180  RH  081%=      5-min Rain = 0
KST2 160751Z 06011KT 21/18 A2987 RMK A01 T02140180  RH  081%=      5-min Rain = 0
KST2 160752Z 06010KT 21/18 A2987 RMK A01 T02140180  RH  081%=      5-min Rain = 0
KST2 160753Z 06012KT 22/18 A2987 RMK A01 T02150181  RH  081%=      5-min Rain = 0
KST2 160754Z 05012KT 22/18 A2987 RMK A01 T02150180  RH  081%=      5-min Rain = 0
KST2 160755Z 06012KT 21/18 A2987 RMK A01 T02140180  RH  081%=      5-min Rain = 0
KST2 160756Z 05010KT 22/18 A2987 RMK A01 T02150180  RH  081%=      5-min Rain = 0
KST2 160757Z 05011KT 22/18 A2987 RMK A01 T02150180  RH  081%=      5-min Rain = 0
KST2 160758Z 06011KT 21/18 A2987 RMK A01 T02140180  RH  081%=      5-min Rain = 0
KST2 160759Z 06011KT 21/18 A2987 RMK A01 T02140180  RH  081%=      5-min Rain = 0
KST2 160800Z 06011KT 21/18 A2987 RMK A01 T02140180  RH  081%=      5-min Rain = 0
KST2 160801Z 06011KT 21/18 A2987 RMK A01 T02140180  RH  081%=      5-min Rain = 0
KST2 160802Z 06010KT 21/18 A2987 RMK A01 T02130179  RH  081%=      5-min Rain = 0
KST2 160803Z 06010KT 21/18 A2987 RMK A01 T02130179  RH  081%=      5-min Rain = 0
KST2 160804Z 06010KT 21/18 A2986 RMK A01 T02130179  RH  081%=      5-min Rain = 0
KST2 160805Z 07010KT 21/18 A2986 RMK A01 T02130179  RH  081%=      5-min Rain = 0
KST2 160806Z 07010KT 21/18 A2986 RMK A01 T02120178  RH  081%=      5-min Rain = 0
KST2 160807Z 07011KT 21/18 A2986 RMK A01 T02120178  RH  081%=      5-min Rain = 0
KST2 160808Z 07008KT 21/18 A2987 RMK A01 T02120178  RH  081%=      5-min Rain = 0
KST2 160809Z 07009KT 21/18 A2987 RMK A01 T02110178  RH  081%=      5-min Rain = 0
KST2 160810Z 07009KT 21/18 A2987 RMK A01 T02110178  RH  081%=      5-min Rain = 0
KST2 160811Z 07009KT 21/18 A2987 RMK A01 T02110178  RH  081%=      5-min Rain = 0
KST2 160812Z 06009KT 21/18 A2987 RMK A01 T02110178  RH  081%=      5-min Rain = 0
KST2 160813Z 07008KT 21/18 A2987 RMK A01 T02110177  RH  081%=      5-min Rain = 0
KST2 160814Z 06009KT 21/18 A2987 RMK A01 T02110178  RH  081%=      5-min Rain = 0
KST2 160815Z 06009KT 21/18 A2987 RMK A01 T02110178  RH  081%=      5-min Rain = 0
KST2 160816Z 06010KT 21/18 A2987 RMK A01 T02110177  RH  081%=      5-min Rain = 0
KST2 160817Z 06011KT 21/18 A2987 RMK A01 T02100177  RH  081%=      5-min Rain = 0
KST2 160818Z 07010KT 21/18 A2987 RMK A01 T02100177  RH  081%=      5-min Rain = 0
KST2 160819Z 07011KT 21/18 A2987 RMK A01 T02100177  RH  082%=      5-min Rain = 0
KST2 160820Z 07008KT 21/18 A2987 RMK A01 T02090177  RH  082%=      5-min Rain = 0
KST2 160821Z 07008KT 21/18 A2987 RMK A01 T02090177  RH  082%=      5-min Rain = 0
KST2 160822Z 06008KT 21/18 A2987 RMK A01 T02090177  RH  082%=      5-min Rain = 0
KST2 160823Z 07010KT 21/18 A2987 RMK A01 T02090177  RH  082%=      5-min Rain = 0
KST2 160824Z 07009KT 21/18 A2987 RMK A01 T02090177  RH  082%=      5-min Rain = 0
KST2 160825Z 07010KT 21/18 A2987 RMK A01 T02090177  RH  082%=      5-min Rain = 0
KST2 160826Z 08010KT 21/18 A2987 RMK A01 T02080176  RH  082%=      5-min Rain = 0
KST2 160827Z 07011KT 21/18 A2986 RMK A01 T02080176  RH  082%=      5-min Rain = 0
KST2 160828Z 08010KT 21/18 A2986 RMK A01 T02080176  RH  082%=      5-min Rain = 0
KST2 160829Z 07009KT 21/18 A2986 RMK A01 T02080176  RH  082%=      5-min Rain = 0
KST2 160830Z 08011KT 21/18 A2986 RMK A01 T02080176  RH  082%=      5-min Rain = 0
KST2 160831Z 08009KT 21/18 A2986 RMK A01 T02070176  RH  082%=      5-min Rain = 0
KST2 160832Z 08010KT 21/18 A2986 RMK A01 T02070176  RH  082%=      5-min Rain = 0
KST2 160833Z 08009KT 21/18 A2986 RMK A01 T02070176  RH  082%=      5-min Rain = 0
KST2 160834Z 08010KT 21/18 A2986 RMK A01 T02070175  RH  082%=      5-min Rain = 0
KST2 160835Z 09010KT 21/18 A2986 RMK A01 T02070175  RH  082%=      5-min Rain = 0
KST2 160836Z 09010KT 21/18 A2986 RMK A01 T02070175  RH  082%=      5-min Rain = 0
KST2 160837Z 10011KT 21/18 A2986 RMK A01 T02060175  RH  082%=      5-min Rain = 0
KST2 160838Z 10011KT 21/18 A2985 RMK A01 T02060175  RH  082%=      5-min Rain = 0
KST2 160839Z 10010KT 21/18 A2985 RMK A01 T02060175  RH  082%=      5-min Rain = 0
KST2 160840Z 10009KT 21/18 A2985 RMK A01 T02050175  RH  083%=      5-min Rain = 0
KST2 160841Z 10010KT 21/18 A2985 RMK A01 T02050175  RH  083%=      5-min Rain = 0
KST2 160842Z 10010KT 21/18 A2985 RMK A01 T02050175  RH  083%=      5-min Rain = 0
KST2 160843Z 11009KT 21/18 A2985 RMK A01 T02050175  RH  083%=      5-min Rain = 0
KST2 160844Z 10009KT 20/18 A2985 RMK A01 T02040175  RH  083%=      5-min Rain = 0
KST2 160845Z 10010KT 20/18 A2985 RMK A01 T02040175  RH  083%=      5-min Rain = 0
KST2 160846Z 10008KT 20/18 A2985 RMK A01 T02040175  RH  083%=      5-min Rain = 0
KST2 160847Z 11009KT 20/18 A2985 RMK A01 T02040175  RH  083%=      5-min Rain = 0
KST2 160848Z 11009KT 20/18 A2985 RMK A01 T02040175  RH  083%=      5-min Rain = 0
KST2 160849Z 11009KT 20/18 A2985 RMK A01 T02040175  RH  083%=      5-min Rain = 0
KST2 160850Z 12009KT 20/18 A2984 RMK A01 T02040175  RH  083%=      5-min Rain = 0
KST2 160851Z 11009KT 20/18 A2984 RMK A01 T02040175  RH  083%=      5-min Rain = 0
KST2 160852Z 11010KT 20/18 A2984 RMK A01 T02030175  RH  084%=      5-min Rain = 0
KST2 160853Z 11009KT 20/18 A2984 RMK A01 T02030175  RH  084%=      5-min Rain = 0
KST2 160854Z 12009KT 20/18 A2984 RMK A01 T02040175  RH  084%=      5-min Rain = 0
KST2 160855Z 12008KT 20/18 A2984 RMK A01 T02030175  RH  084%=      5-min Rain = 0
KST2 160856Z 12007KT 20/18 A2984 RMK A01 T02030175  RH  084%=      5-min Rain = 0
KST2 160857Z 12007KT 20/17 A2984 RMK A01 T02030174  RH  084%=      5-min Rain = 0
KST2 160858Z 12007KT 20/18 A2984 RMK A01 T02030175  RH  084%=      5-min Rain = 0
KST2 160859Z 12008KT 20/18 A2984 RMK A01 T02030175  RH  084%=      5-min Rain = 0
KST2 160900Z 12006KT 20/18 A2984 RMK A01 T02030175  RH  084%=      5-min Rain = 0
KST2 160901Z 12006KT 20/18 A2984 RMK A01 T02030175  RH  084%=      5-min Rain = 0
KST2 160902Z 12006KT 20/18 A2984 RMK A01 T02030175  RH  084%=      5-min Rain = 0
KST2 160903Z 12007KT 20/18 A2984 RMK A01 T02020175  RH  084%=      5-min Rain = 0
KST2 160904Z 13006KT 20/18 A2983 RMK A01 T02020175  RH  084%=      5-min Rain = 0
KST2 160905Z 12007KT 20/18 A2984 RMK A01 T02020175  RH  084%=      5-min Rain = 0
KST2 160906Z 12006KT 20/18 A2984 RMK A01 T02020175  RH  085%=      5-min Rain = 0
KST2 160907Z 12005KT 20/18 A2984 RMK A01 T02020175  RH  085%=      5-min Rain = 0
KST2 160908Z 12006KT 20/18 A2984 RMK A01 T02020175  RH  085%=      5-min Rain = 0
KST2 160909Z 11005KT 20/18 A2984 RMK A01 T02010175  RH  085%=      5-min Rain = 0
KST2 160910Z 10005KT 20/18 A2984 RMK A01 T02010175  RH  085%=      5-min Rain = 0
KST2 160911Z 10006KT 20/18 A2984 RMK A01 T02010175  RH  085%=      5-min Rain = 0
KST2 160912Z 10006KT 20/18 A2984 RMK A01 T02010175  RH  085%=      5-min Rain = 0
KST2 160913Z 10006KT 20/18 A2984 RMK A01 T02010175  RH  085%=      5-min Rain = 0
KST2 160914Z 10006KT 20/18 A2984 RMK A01 T02010175  RH  085%=      5-min Rain = 0
KST2 160915Z 10006KT 20/18 A2984 RMK A01 T02010175  RH  085%=      5-min Rain = 0
KST2 160916Z 11006KT 20/18 A2984 RMK A01 T02010175  RH  085%=      5-min Rain = 0
KST2 160917Z 11006KT 20/18 A2984 RMK A01 T02010175  RH  085%=      5-min Rain = 0
KST2 160918Z 10006KT 20/18 A2985 RMK A01 T02010175  RH  085%=      5-min Rain = 0
KST2 160919Z 10005KT 20/18 A2985 RMK A01 T02010175  RH  085%=      5-min Rain = 0
KST2 160920Z 10005KT 20/18 A2985 RMK A01 T02010175  RH  085%=      5-min Rain = 0
KST2 160921Z 10006KT 20/18 A2984 RMK A01 T02010175  RH  085%=      5-min Rain = 0
KST2 160922Z 10006KT 20/18 A2985 RMK A01 T02010175  RH  085%=      5-min Rain = 0
KST2 160923Z 10006KT 20/18 A2985 RMK A01 T02010175  RH  085%=      5-min Rain = 0
KST2 160924Z 10006KT 20/18 A2985 RMK A01 T02020176  RH  085%=      5-min Rain = 0
KST2 160925Z 10006KT 20/18 A2985 RMK A01 T02010175  RH  085%=      5-min Rain = 0
KST2 160926Z 10006KT 20/18 A2985 RMK A01 T02010176  RH  085%=      5-min Rain = 0
KST2 160927Z 10005KT 20/18 A2985 RMK A01 T02010176  RH  085%=      5-min Rain = 0
KST2 160928Z 10005KT 20/18 A2985 RMK A01 T02010176  RH  085%=      5-min Rain = 0
KST2 160929Z 10006KT 20/18 A2985 RMK A01 T02010176  RH  085%=      5-min Rain = 0
KST2 160930Z 10006KT 20/18 A2985 RMK A01 T02010176  RH  085%=      5-min Rain = 0
KST2 160931Z 10005KT 20/18 A2985 RMK A01 T02010176  RH  086%=      5-min Rain = 0
KST2 160932Z 09006KT 20/18 A2985 RMK A01 T02010176  RH  086%=      5-min Rain = 0
KST2 160933Z 09006KT 20/18 A2985 RMK A01 T02010176  RH  086%=      5-min Rain = 0
KST2 160934Z 09006KT 20/18 A2985 RMK A01 T02010176  RH  086%=      5-min Rain = 0
KST2 160935Z 09006KT 20/18 A2985 RMK A01 T02000176  RH  086%=      5-min Rain = 0
KST2 160936Z 10006KT 20/18 A2985 RMK A01 T02000176  RH  086%=      5-min Rain = 0
KST2 160937Z 09006KT 20/18 A2985 RMK A01 T02000176  RH  086%=      5-min Rain = 0
KST2 160938Z 09007KT 20/18 A2985 RMK A01 T02000176  RH  086%=      5-min Rain = 0
KST2 160939Z 09007KT 20/18 A2986 RMK A01 T02000176  RH  086%=      5-min Rain = 0
KST2 160940Z 09006KT 20/18 A2986 RMK A01 T02000176  RH  086%=      5-min Rain = 0
KST2 160941Z 09006KT 20/18 A2986 RMK A01 T02000176  RH  086%=      5-min Rain = 0
KST2 160942Z 09006KT 20/18 A2986 RMK A01 T02000176  RH  086%=      5-min Rain = 0
KST2 160943Z 09006KT 20/18 A2986 RMK A01 T02000177  RH  086%=      5-min Rain = 0
KST2 160944Z 08006KT 20/18 A2986 RMK A01 T01990176  RH  086%=      5-min Rain = 0
KST2 160945Z 08006KT 20/18 A2986 RMK A01 T01990176  RH  086%=      5-min Rain = 0
KST2 160946Z 08006KT 20/18 A2986 RMK A01 T01990176  RH  086%=      5-min Rain = 0
KST2 160947Z 07006KT 20/18 A2986 RMK A01 T01990176  RH  086%=      5-min Rain = 0
KST2 160948Z 08007KT 20/18 A2986 RMK A01 T01990176  RH  087%=      5-min Rain = 0
KST2 160949Z 07007KT 20/18 A2986 RMK A01 T01990176  RH  087%=      5-min Rain = 0
KST2 160950Z 08006KT 20/18 A2986 RMK A01 T01990176  RH  087%=      5-min Rain = 0
KST2 160951Z 08007KT 20/18 A2986 RMK A01 T01990176  RH  087%=      5-min Rain = 0
KST2 160952Z 08006KT 20/18 A2986 RMK A01 T01990176  RH  087%=      5-min Rain = 0
KST2 160953Z 08005KT 20/18 A2986 RMK A01 T01990176  RH  087%=      5-min Rain = 0
KST2 160954Z 07005KT 20/18 A2986 RMK A01 T01990177  RH  087%=      5-min Rain = 0
KST2 160955Z 07006KT 20/18 A2986 RMK A01 T01990176  RH  087%=      5-min Rain = 0
KST2 160956Z 08007KT 20/18 A2986 RMK A01 T01990177  RH  087%=      5-min Rain = 0
KST2 160957Z 08008KT 20/18 A2986 RMK A01 T01990176  RH  087%=      5-min Rain = 0
KST2 160958Z 08006KT 20/18 A2986 RMK A01 T01990176  RH  087%=      5-min Rain = 0
KST2 160959Z 09007KT 20/18 A2986 RMK A01 T01980176  RH  087%=      5-min Rain = 0
KST2 161000Z 09006KT 20/18 A2986 RMK A01 T01980176  RH  087%=      5-min Rain = 0
KST2 161001Z 09007KT 20/18 A2986 RMK A01 T01980177  RH  087%=      5-min Rain = 0
KST2 161002Z 09006KT 20/18 A2986 RMK A01 T01980176  RH  087%=      5-min Rain = 0
KST2 161003Z 09006KT 20/18 A2986 RMK A01 T01980177  RH  087%=      5-min Rain = 0
KST2 161004Z 09007KT 20/18 A2986 RMK A01 T01980176  RH  087%=      5-min Rain = 0
KST2 161005Z 09006KT 20/18 A2986 RMK A01 T01970176  RH  087%=      5-min Rain = 0
KST2 161006Z 09007KT 20/18 A2986 RMK A01 T01980176  RH  087%=      5-min Rain = 0
KST2 161007Z 09006KT 20/18 A2986 RMK A01 T01980176  RH  087%=      5-min Rain = 0
KST2 161008Z 09008KT 20/18 A2986 RMK A01 T01980176  RH  087%=      5-min Rain = 0
KST2 161009Z 08006KT 20/18 A2986 RMK A01 T01970176  RH  087%=      5-min Rain = 0
KST2 161010Z 08005KT 20/18 A2986 RMK A01 T01980176  RH  088%=      5-min Rain = 0
KST2 161011Z 08005KT 20/18 A2986 RMK A01 T01980177  RH  088%=      5-min Rain = 0
KST2 161012Z 07007KT 20/18 A2986 RMK A01 T01980176  RH  088%=      5-min Rain = 0
KST2 161013Z 07006KT 20/18 A2986 RMK A01 T01970176  RH  088%=      5-min Rain = 0
KST2 161014Z 07006KT 20/18 A2987 RMK A01 T01980177  RH  088%=      5-min Rain = 0
KST2 161015Z 06006KT 20/18 A2987 RMK A01 T01980177  RH  088%=      5-min Rain = 0
KST2 161016Z 06006KT 20/18 A2987 RMK A01 T01980176  RH  088%=      5-min Rain = 0
KST2 161017Z 06006KT 20/18 A2987 RMK A01 T01980177  RH  088%=      5-min Rain = 0
KST2 161018Z 07006KT 20/18 A2987 RMK A01 T01980176  RH  088%=      5-min Rain = 0
KST2 161019Z 07006KT 20/18 A2987 RMK A01 T01980176  RH  088%=      5-min Rain = 0
KST2 161020Z 07005KT 20/18 A2987 RMK A01 T01970176  RH  088%=      5-min Rain = 0
KST2 161021Z 07005KT 20/18 A2987 RMK A01 T01980176  RH  088%=      5-min Rain = 0
KST2 161022Z 06006KT 20/18 A2987 RMK A01 T01980176  RH  087%=      5-min Rain = 0
KST2 161023Z 06006KT 20/18 A2987 RMK A01 T01980176  RH  087%=      5-min Rain = 0
KST2 161024Z 06006KT 20/18 A2987 RMK A01 T01970176  RH  087%=      5-min Rain = 0
KST2 161025Z 06006KT 20/18 A2987 RMK A01 T01980176  RH  087%=      5-min Rain = 0
KST2 161026Z 06006KT 20/18 A2987 RMK A01 T01980176  RH  087%=      5-min Rain = 0
KST2 161027Z 06007KT 20/18 A2987 RMK A01 T01970176  RH  087%=      5-min Rain = 0
KST2 161028Z 06007KT 20/18 A2987 RMK A01 T01980176  RH  087%=      5-min Rain = 0
KST2 161029Z 07007KT 20/18 A2987 RMK A01 T01980176  RH  087%=      5-min Rain = 0
KST2 161030Z 07006KT 20/18 A2987 RMK A01 T01980176  RH  087%=      5-min Rain = 0
KST2 161031Z 07007KT 20/18 A2987 RMK A01 T01980176  RH  087%=      5-min Rain = 0
KST2 161032Z 07007KT 20/18 A2987 RMK A01 T01970175  RH  087%=      5-min Rain = 0
KST2 161033Z 07007KT 20/18 A2987 RMK A01 T01980176  RH  087%=      5-min Rain = 0
KST2 161034Z 07007KT 20/18 A2987 RMK A01 T01980175  RH  087%=      5-min Rain = 0
KST2 161035Z 07007KT 20/18 A2987 RMK A01 T01980176  RH  087%=      5-min Rain = 0
KST2 161036Z 07006KT 20/18 A2987 RMK A01 T01970175  RH  087%=      5-min Rain = 0
KST2 161037Z 07006KT 20/18 A2987 RMK A01 T01970175  RH  087%=      5-min Rain = 0
KST2 161038Z 07007KT 20/18 A2987 RMK A01 T01980176  RH  087%=      5-min Rain = 0
KST2 161039Z 07006KT 20/18 A2987 RMK A01 T01970175  RH  087%=      5-min Rain = 0
KST2 161040Z 07006KT 20/18 A2987 RMK A01 T01980175  RH  087%=      5-min Rain = 0
KST2 161041Z 07006KT 20/18 A2987 RMK A01 T01980175  RH  087%=      5-min Rain = 0
KST2 161042Z 07005KT 20/18 A2987 RMK A01 T01980175  RH  087%=      5-min Rain = 0
KST2 161043Z 07006KT 20/18 A2987 RMK A01 T01970175  RH  087%=      5-min Rain = 0
KST2 161044Z 08006KT 20/18 A2987 RMK A01 T01980175  RH  087%=      5-min Rain = 0
KST2 161045Z 08006KT 20/18 A2987 RMK A01 T01970175  RH  087%=      5-min Rain = 0
KST2 161046Z 08006KT 20/18 A2986 RMK A01 T01980175  RH  087%=      5-min Rain = 0
KST2 161047Z 08006KT 20/18 A2986 RMK A01 T01970175  RH  087%=      5-min Rain = 0
KST2 161048Z 09007KT 20/18 A2986 RMK A01 T01970175  RH  087%=      5-min Rain = 0
KST2 161049Z 09007KT 20/18 A2986 RMK A01 T01980175  RH  087%=      5-min Rain = 0
KST2 161050Z 09007KT 20/18 A2986 RMK A01 T01970175  RH  087%=      5-min Rain = 0
KST2 161051Z 09006KT 20/17 A2986 RMK A01 T01970174  RH  087%=      5-min Rain = 0
KST2 161052Z 09007KT 20/18 A2986 RMK A01 T01970175  RH  087%=      5-min Rain = 0
KST2 161053Z 09006KT 20/18 A2986 RMK A01 T01970175  RH  087%=      5-min Rain = 0
KST2 161054Z 09007KT 20/17 A2986 RMK A01 T01970174  RH  087%=      5-min Rain = 0
KST2 161055Z 09007KT 20/17 A2986 RMK A01 T01970174  RH  087%=      5-min Rain = 0
KST2 161056Z 09006KT 20/17 A2986 RMK A01 T01970174  RH  087%=      5-min Rain = 0
KST2 161057Z 09007KT 20/17 A2986 RMK A01 T01970174  RH  087%=      5-min Rain = 0
KST2 161058Z 09007KT 20/17 A2986 RMK A01 T01970174  RH  087%=      5-min Rain = 0
KST2 161059Z 09007KT 20/17 A2986 RMK A01 T01970174  RH  087%=      5-min Rain = 0
KST2 161100Z 09006KT 20/17 A2986 RMK A01 T01970174  RH  087%=      5-min Rain = 0
KST2 161101Z 09007KT 20/17 A2986 RMK A01 T01970174  RH  087%=      5-min Rain = 0
KST2 161102Z 09007KT 20/17 A2986 RMK A01 T01970174  RH  087%=      5-min Rain = 0
KST2 161103Z 10007KT 20/17 A2986 RMK A01 T01970174  RH  087%=      5-min Rain = 0
KST2 161104Z 10006KT 20/17 A2986 RMK A01 T01970174  RH  087%=      5-min Rain = 0
KST2 161105Z 11006KT 20/17 A2986 RMK A01 T01960174  RH  087%=      5-min Rain = 0
KST2 161106Z 11006KT 20/17 A2986 RMK A01 T01960174  RH  087%=      5-min Rain = 0
KST2 161107Z 11006KT 20/17 A2986 RMK A01 T01960174  RH  087%=      5-min Rain = 0
KST2 161108Z 10006KT 20/17 A2986 RMK A01 T01960174  RH  087%=      5-min Rain = 0
KST2 161109Z 10006KT 20/17 A2986 RMK A01 T01960174  RH  087%=      5-min Rain = 0
KST2 161110Z 11005KT 20/17 A2986 RMK A01 T01960174  RH  087%=      5-min Rain = 0
KST2 161111Z 12006KT 20/17 A2986 RMK A01 T01960174  RH  087%=      5-min Rain = 0
KST2 161112Z 12005KT 20/17 A2987 RMK A01 T01960174  RH  087%=      5-min Rain = 0
KST2 161113Z 11005KT 20/17 A2987 RMK A01 T01960174  RH  087%=      5-min Rain = 0
KST2 161114Z 12005KT 20/17 A2987 RMK A01 T01950173  RH  087%=      5-min Rain = 0
KST2 161115Z 12005KT 20/17 A2987 RMK A01 T01950174  RH  087%=      5-min Rain = 0
KST2 161116Z 11005KT 20/17 A2987 RMK A01 T01950174  RH  087%=      5-min Rain = 0
KST2 161117Z 11005KT 20/17 A2987 RMK A01 T01950174  RH  087%=      5-min Rain = 0
KST2 161118Z 11003KT 20/17 A2987 RMK A01 T01950174  RH  087%=      5-min Rain = 0
KST2 161119Z 11003KT 20/17 A2987 RMK A01 T01950174  RH  087%=      5-min Rain = 0
KST2 161120Z 12003KT 20/17 A2987 RMK A01 T01950174  RH  088%=      5-min Rain = 0
KST2 161121Z 12003KT 20/17 A2987 RMK A01 T01950174  RH  088%=      5-min Rain = 0
KST2 161122Z 11003KT 20/17 A2987 RMK A01 T01950174  RH  088%=      5-min Rain = 0
KST2 161123Z 12003KT 20/17 A2987 RMK A01 T01950174  RH  088%=      5-min Rain = 0
KST2 161124Z 12003KT 20/17 A2987 RMK A01 T01950174  RH  088%=      5-min Rain = 0
KST2 161125Z 12003KT 20/17 A2987 RMK A01 T01950174  RH  088%=      5-min Rain = 0
KST2 161126Z 13004KT 20/17 A2987 RMK A01 T01950174  RH  088%=      5-min Rain = 0
KST2 161127Z 13004KT 20/17 A2987 RMK A01 T01950174  RH  088%=      5-min Rain = 0
KST2 161128Z 13004KT 20/17 A2987 RMK A01 T01950174  RH  088%=      5-min Rain = 0
KST2 161129Z 13004KT 20/17 A2987 RMK A01 T01950174  RH  088%=      5-min Rain = 0
KST2 161130Z 13004KT 20/17 A2987 RMK A01 T01950174  RH  088%=      5-min Rain = 0
KST2 161131Z 13004KT 19/17 A2987 RMK A01 T01940174  RH  088%=      5-min Rain = 0
KST2 161132Z 13004KT 19/17 A2987 RMK A01 T01940174  RH  088%=      5-min Rain = 0
KST2 161133Z 13004KT 19/17 A2987 RMK A01 T01940174  RH  088%=      5-min Rain = 0
KST2 161134Z 13004KT 19/17 A2987 RMK A01 T01940174  RH  088%=      5-min Rain = 0
KST2 161135Z 13004KT 19/17 A2987 RMK A01 T01940174  RH  088%=      5-min Rain = 0
KST2 161136Z 13004KT 19/17 A2987 RMK A01 T01940174  RH  088%=      5-min Rain = 0
KST2 161137Z 13004KT 19/17 A2987 RMK A01 T01940174  RH  088%=      5-min Rain = 0
KST2 161138Z 13004KT 19/17 A2987 RMK A01 T01940174  RH  088%=      5-min Rain = 0
KST2 161139Z 14004KT 19/17 A2987 RMK A01 T01930174  RH  088%=      5-min Rain = 0
KST2 161140Z 14004KT 19/17 A2987 RMK A01 T01940174  RH  088%=      5-min Rain = 0
KST2 161141Z 13003KT 19/17 A2987 RMK A01 T01930174  RH  088%=      5-min Rain = 0
KST2 161142Z 13003KT 19/17 A2987 RMK A01 T01940174  RH  088%=      5-min Rain = 0
KST2 161143Z 14003KT 19/17 A2987 RMK A01 T01930173  RH  088%=      5-min Rain = 0
KST2 161144Z 14004KT 19/17 A2987 RMK A01 T01930174  RH  088%=      5-min Rain = 0
KST2 161145Z 14004KT 19/17 A2987 RMK A01 T01930174  RH  088%=      5-min Rain = 0
KST2 161146Z 14004KT 19/17 A2987 RMK A01 T01930174  RH  088%=      5-min Rain = 0
KST2 161147Z 13003KT 19/17 A2987 RMK A01 T01930173  RH  088%=      5-min Rain = 0
KST2 161148Z 13003KT 19/17 A2987 RMK A01 T01930173  RH  088%=      5-min Rain = 0
KST2 161149Z 14003KT 19/17 A2987 RMK A01 T01930174  RH  088%=      5-min Rain = 0
KST2 161150Z 14003KT 19/17 A2987 RMK A01 T01930173  RH  088%=      5-min Rain = 0
KST2 161151Z 13003KT 19/17 A2987 RMK A01 T01930174  RH  089%=      5-min Rain = 0
KST2 161152Z 12003KT 19/17 A2987 RMK A01 T01930174  RH  089%=      5-min Rain = 0
KST2 161153Z 12003KT 19/17 A2987 RMK A01 T01930174  RH  089%=      5-min Rain = 0
KST2 161154Z 13003KT 19/17 A2987 RMK A01 T01930174  RH  089%=      5-min Rain = 0
KST2 161155Z 13003KT 19/17 A2987 RMK A01 T01930174  RH  089%=      5-min Rain = 0
KST2 161156Z 12003KT 19/17 A2987 RMK A01 T01930174  RH  089%=      5-min Rain = 0
KST2 161157Z 11002KT 19/17 A2987 RMK A01 T01930174  RH  089%=      5-min Rain = 0
KST2 161158Z 10002KT 19/17 A2987 RMK A01 T01930174  RH  089%=      5-min Rain = 0
KST2 161159Z 11002KT 19/17 A2987 RMK A01 T01930174  RH  089%=      5-min Rain = 0
KST2 161200Z 11001KT 19/17 A2987 RMK A01 T01930174  RH  089%=      5-min Rain = 0
KST2 161201Z 12001KT 19/17 A2987 RMK A01 T01930174  RH  089%=      5-min Rain = 0
KST2 161202Z 12000KT 19/17 A2987 RMK A01 T01930174  RH  089%=      5-min Rain = 0
KST2 161203Z 10000KT 19/17 A2987 RMK A01 T01940174  RH  089%=      5-min Rain = 0
KST2 161204Z 07001KT 19/18 A2987 RMK A01 T01940175  RH  089%=      5-min Rain = 0
KST2 161205Z 08000KT 20/18 A2987 RMK A01 T01950175  RH  089%=      5-min Rain = 0
KST2 161206Z 07001KT 20/18 A2987 RMK A01 T01950176  RH  089%=      5-min Rain = 0
KST2 161207Z 06001KT 20/18 A2987 RMK A01 T01950176  RH  088%=      5-min Rain = 0
KST2 161208Z 04001KT 20/18 A2987 RMK A01 T01960176  RH  088%=      5-min Rain = 0
KST2 161209Z 03001KT 20/18 A2987 RMK A01 T01960177  RH  088%=      5-min Rain = 0
KST2 161210Z 03001KT 20/18 A2987 RMK A01 T01960177  RH  088%=      5-min Rain = 0
KST2 161211Z 01001KT 20/18 A2987 RMK A01 T01970177  RH  088%=      5-min Rain = 0
KST2 161212Z 36001KT 20/18 A2987 RMK A01 T01970178  RH  088%=      5-min Rain = 0
KST2 161213Z 01001KT 20/18 A2987 RMK A01 T01970178  RH  088%=      5-min Rain = 0
KST2 161214Z 01001KT 20/18 A2987 RMK A01 T01980178  RH  088%=      5-min Rain = 0
KST2 161215Z 00002KT 20/18 A2987 RMK A01 T01980178  RH  088%=      5-min Rain = 0
KST2 161216Z 36001KT 20/18 A2987 RMK A01 T01980178  RH  088%=      5-min Rain = 0
KST2 161217Z 35002KT 20/18 A2987 RMK A01 T01990179  RH  088%=      5-min Rain = 0
KST2 161218Z 34002KT 20/18 A2987 RMK A01 T01990179  RH  088%=      5-min Rain = 0
KST2 161219Z 34002KT 20/18 A2987 RMK A01 T01990179  RH  088%=      5-min Rain = 0
KST2 161220Z 34002KT 20/18 A2987 RMK A01 T01990179  RH  088%=      5-min Rain = 0
KST2 161221Z 34002KT 20/18 A2987 RMK A01 T01990179  RH  088%=      5-min Rain = 0
KST2 161222Z 34002KT 20/18 A2987 RMK A01 T02000179  RH  088%=      5-min Rain = 0
KST2 161223Z 35002KT 20/18 A2987 RMK A01 T02000179  RH  088%=      5-min Rain = 0
KST2 161224Z 01002KT 20/18 A2987 RMK A01 T02010180  RH  088%=      5-min Rain = 0
KST2 161225Z 02002KT 20/18 A2987 RMK A01 T02020181  RH  088%=      5-min Rain = 0
KST2 161226Z 01002KT 20/18 A2987 RMK A01 T02020181  RH  088%=      5-min Rain = 0
KST2 161227Z 36002KT 20/18 A2987 RMK A01 T02020181  RH  087%=      5-min Rain = 0
KST2 161228Z 35002KT 20/18 A2987 RMK A01 T02020181  RH  088%=      5-min Rain = 0
KST2 161229Z 01002KT 20/18 A2987 RMK A01 T02030181  RH  087%=      5-min Rain = 0
KST2 161230Z 00002KT 20/18 A2987 RMK A01 T02030181  RH  087%=      5-min Rain = 0
KST2 161231Z 36003KT 20/18 A2987 RMK A01 T02030181  RH  087%=      5-min Rain = 0
KST2 161232Z 36003KT 20/18 A2987 RMK A01 T02030182  RH  087%=      5-min Rain = 0
KST2 161233Z 35004KT 20/18 A2987 RMK A01 T02040182  RH  087%=      5-min Rain = 0
KST2 161234Z 34005KT 20/18 A2987 RMK A01 T02040182  RH  087%=      5-min Rain = 0
KST2 161235Z 35005KT 21/18 A2987 RMK A01 T02050183  RH  087%=      5-min Rain = 0
KST2 161236Z 35005KT 21/18 A2987 RMK A01 T02050183  RH  087%=      5-min Rain = 0
KST2 161237Z 34005KT 21/18 A2987 RMK A01 T02060183  RH  087%=      5-min Rain = 0
KST2 161238Z 35004KT 21/18 A2987 RMK A01 T02060183  RH  087%=      5-min Rain = 0
KST2 161239Z 35005KT 21/18 A2987 RMK A01 T02070184  RH  087%=      5-min Rain = 0
KST2 161240Z 34004KT 21/18 A2987 RMK A01 T02070184  RH  086%=      5-min Rain = 0
KST2 161241Z 35004KT 21/18 A2988 RMK A01 T02070184  RH  086%=      5-min Rain = 0
KST2 161242Z 00004KT 21/18 A2988 RMK A01 T02080184  RH  086%=      5-min Rain = 0
KST2 161243Z 35004KT 21/19 A2988 RMK A01 T02090185  RH  086%=      5-min Rain = 0
KST2 161244Z 35004KT 21/18 A2988 RMK A01 T02090184  RH  086%=      5-min Rain = 0
KST2 161245Z 35004KT 21/18 A2988 RMK A01 T02090184  RH  086%=      5-min Rain = 0
KST2 161246Z 35004KT 21/19 A2988 RMK A01 T02090185  RH  086%=      5-min Rain = 0
KST2 161247Z 34005KT 21/19 A2988 RMK A01 T02100185  RH  086%=      5-min Rain = 0
KST2 161248Z 36005KT 21/18 A2988 RMK A01 T02090184  RH  086%=      5-min Rain = 0
KST2 161249Z 35005KT 21/18 A2988 RMK A01 T02100184  RH  085%=      5-min Rain = 0
KST2 161250Z 35006KT 21/18 A2988 RMK A01 T02100184  RH  085%=      5-min Rain = 0
KST2 161251Z 36006KT 21/19 A2989 RMK A01 T02100185  RH  085%=      5-min Rain = 0
KST2 161252Z 00005KT 21/18 A2989 RMK A01 T02100184  RH  085%=      5-min Rain = 0
KST2 161253Z 36006KT 21/19 A2989 RMK A01 T02110185  RH  085%=      5-min Rain = 0
KST2 161254Z 35007KT 21/19 A2989 RMK A01 T02110185  RH  085%=      5-min Rain = 0
KST2 161255Z 36006KT 21/19 A2989 RMK A01 T02110185  RH  085%=      5-min Rain = 0
KST2 161256Z 00006KT 21/18 A2989 RMK A01 T02110184  RH  085%=      5-min Rain = 0
KST2 161257Z 00007KT 21/18 A2989 RMK A01 T02120184  RH  084%=      5-min Rain = 0
KST2 161258Z 00007KT 21/18 A2989 RMK A01 T02110184  RH  084%=      5-min Rain = 0
KST2 161259Z 00007KT 21/18 A2989 RMK A01 T02120184  RH  084%=      5-min Rain = 0
KST2 161300Z 01006KT 21/18 A2989 RMK A01 T02120184  RH  084%=      5-min Rain = 0
KST2 161301Z 01006KT 21/18 A2989 RMK A01 T02120184  RH  084%=      5-min Rain = 0
KST2 161302Z 01006KT 21/18 A2989 RMK A01 T02120184  RH  084%=      5-min Rain = 0
KST2 161303Z 01005KT 21/18 A2989 RMK A01 T02120184  RH  084%=      5-min Rain = 0
KST2 161304Z 01005KT 21/19 A2989 RMK A01 T02130185  RH  084%=      5-min Rain = 0
KST2 161305Z 02004KT 21/19 A2989 RMK A01 T02130185  RH  084%=      5-min Rain = 0
KST2 161306Z 01005KT 21/19 A2989 RMK A01 T02140186  RH  084%=      5-min Rain = 0
KST2 161307Z 01006KT 21/19 A2989 RMK A01 T02140186  RH  084%=      5-min Rain = 0
KST2 161308Z 02006KT 22/19 A2989 RMK A01 T02150186  RH  083%=      5-min Rain = 0
KST2 161309Z 02005KT 22/19 A2989 RMK A01 T02150186  RH  083%=      5-min Rain = 0
KST2 161310Z 01006KT 22/19 A299 RMK A01 T02150186  RH  083%=      5-min Rain = 0
KST2 161311Z 01006KT 22/19 A299 RMK A01 T02150186  RH  083%=      5-min Rain = 0
KST2 161312Z 02005KT 22/19 A2989 RMK A01 T02150185  RH  083%=      5-min Rain = 0
KST2 161313Z 03006KT 22/19 A2989 RMK A01 T02150185  RH  083%=      5-min Rain = 0
KST2 161314Z 03005KT 22/19 A2989 RMK A01 T02150185  RH  083%=      5-min Rain = 0
KST2 161315Z 03006KT 22/19 A299 RMK A01 T02150185  RH  083%=      5-min Rain = 0
KST2 161316Z 03006KT 22/18 A2989 RMK A01 T02150184  RH  083%=      5-min Rain = 0
KST2 161317Z 04005KT 21/18 A2989 RMK A01 T02140184  RH  083%=      5-min Rain = 0
KST2 161318Z 03004KT 21/18 A2989 RMK A01 T02140183  RH  083%=      5-min Rain = 0
KST2 161319Z 04005KT 21/18 A2989 RMK A01 T02130183  RH  083%=      5-min Rain = 0
KST2 161320Z 04004KT 21/18 A2989 RMK A01 T02130183  RH  083%=      5-min Rain = 0
KST2 161321Z 05005KT 21/18 A2989 RMK A01 T02130183  RH  083%=      5-min Rain = 0
KST2 161322Z 05004KT 21/18 A2989 RMK A01 T02140183  RH  083%=      5-min Rain = 0
KST2 161323Z 04004KT 21/18 A2989 RMK A01 T02140184  RH  083%=      5-min Rain = 0
KST2 161324Z 06003KT 22/18 A2989 RMK A01 T02150184  RH  083%=      5-min Rain = 0
KST2 161325Z 06005KT 22/19 A2989 RMK A01 T02160185  RH  082%=      5-min Rain = 0
KST2 161326Z 07004KT 22/19 A2989 RMK A01 T02170185  RH  082%=      5-min Rain = 0
KST2 161327Z 05005KT 22/19 A2989 RMK A01 T02170185  RH  082%=      5-min Rain = 0
KST2 161328Z 07005KT 22/19 A2989 RMK A01 T02180185  RH  081%=      5-min Rain = 0
KST2 161329Z 07005KT 22/19 A2989 RMK A01 T02180185  RH  081%=      5-min Rain = 0
KST2 161330Z 07004KT 22/19 A2989 RMK A01 T02180185  RH  081%=      5-min Rain = 0
KST2 161331Z 08005KT 22/19 A2989 RMK A01 T02190185  RH  081%=      5-min Rain = 0
KST2 161332Z 08004KT 22/18 A2989 RMK A01 T02190184  RH  081%=      5-min Rain = 0
KST2 161333Z 08005KT 22/18 A2989 RMK A01 T02190184  RH  081%=      5-min Rain = 0
KST2 161334Z 07005KT 22/18 A2989 RMK A01 T02190184  RH  081%=      5-min Rain = 0
KST2 161335Z 06005KT 22/18 A2989 RMK A01 T02190184  RH  081%=      5-min Rain = 0
KST2 161336Z 08005KT 22/19 A2989 RMK A01 T02190185  RH  081%=      5-min Rain = 0
KST2 161337Z 07004KT 22/19 A299 RMK A01 T02200185  RH  081%=      5-min Rain = 0
KST2 161338Z 07004KT 22/19 A299 RMK A01 T02210186  RH  080%=      5-min Rain = 0
KST2 161339Z 07005KT 22/19 A299 RMK A01 T02220186  RH  080%=      5-min Rain = 0
KST2 161340Z 07006KT 22/19 A299 RMK A01 T02220186  RH  080%=      5-min Rain = 0
KST2 161341Z 08004KT 22/19 A299 RMK A01 T02220185  RH  080%=      5-min Rain = 0
KST2 161342Z 09003KT 22/19 A299 RMK A01 T02220186  RH  080%=      5-min Rain = 0
KST2 161343Z 09004KT 22/19 A299 RMK A01 T02220186  RH  080%=      5-min Rain = 0
KST2 161344Z 09004KT 22/19 A299 RMK A01 T02240187  RH  080%=      5-min Rain = 0
KST2 161345Z 10004KT 22/19 A2989 RMK A01 T02240187  RH  079%=      5-min Rain = 0
KST2 161346Z 10004KT 22/19 A2989 RMK A01 T02240186  RH  079%=      5-min Rain = 0
KST2 161347Z 09004KT 22/19 A2989 RMK A01 T02240186  RH  079%=      5-min Rain = 0
KST2 161348Z 10004KT 23/19 A2989 RMK A01 T02250187  RH  079%=      5-min Rain = 0
KST2 161349Z 08003KT 23/19 A2989 RMK A01 T02250187  RH  079%=      5-min Rain = 0
KST2 161350Z 10003KT 23/19 A299 RMK A01 T02270188  RH  079%=      5-min Rain = 0
KST2 161351Z 12003KT 23/19 A299 RMK A01 T02280189  RH  079%=      5-min Rain = 0
KST2 161352Z 09005KT 23/19 A299 RMK A01 T02280189  RH  078%=      5-min Rain = 0
KST2 161353Z 09004KT 23/19 A299 RMK A01 T02290188  RH  078%=      5-min Rain = 0
KST2 161354Z 10004KT 23/19 A299 RMK A01 T02290189  RH  078%=      5-min Rain = 0
KST2 161355Z 10004KT 23/19 A299 RMK A01 T02290189  RH  078%=      5-min Rain = 0
KST2 161356Z 12004KT 23/19 A299 RMK A01 T02290189  RH  078%=      5-min Rain = 0
KST2 161357Z 12003KT 23/19 A299 RMK A01 T02300189  RH  078%=      5-min Rain = 0
KST2 161358Z 11002KT 23/19 A299 RMK A01 T02300189  RH  078%=      5-min Rain = 0
KST2 161359Z 11004KT 23/19 A299 RMK A01 T02310190  RH  078%=      5-min Rain = 0
KST2 161400Z 11004KT 23/19 A299 RMK A01 T02310189  RH  077%=      5-min Rain = 0
KST2 161401Z 12003KT 23/19 A299 RMK A01 T02310190  RH  077%=      5-min Rain = 0
KST2 161402Z 08004KT 23/19 A299 RMK A01 T02310190  RH  077%=      5-min Rain = 0
KST2 161403Z 10004KT 23/19 A299 RMK A01 T02310190  RH  077%=      5-min Rain = 0
KST2 161404Z 10004KT 23/19 A299 RMK A01 T02310189  RH  078%=      5-min Rain = 0
KST2 161405Z 11003KT 23/19 A299 RMK A01 T02310189  RH  077%=      5-min Rain = 0
KST2 161406Z 11003KT 23/19 A299 RMK A01 T02310189  RH  077%=      5-min Rain = 0
KST2 161407Z 13003KT 23/19 A299 RMK A01 T02310189  RH  077%=      5-min Rain = 0
KST2 161408Z 13003KT 23/19 A299 RMK A01 T02320191  RH  077%=      5-min Rain = 0
KST2 161409Z 11003KT 23/19 A299 RMK A01 T02340191  RH  077%=      5-min Rain = 0
KST2 161410Z 14003KT 24/19 A2989 RMK A01 T02350192  RH  077%=      5-min Rain = 0
KST2 161411Z 15002KT 24/19 A2989 RMK A01 T02360192  RH  077%=      5-min Rain = 0
KST2 161412Z 12003KT 24/19 A2989 RMK A01 T02360193  RH  076%=      5-min Rain = 0
KST2 161413Z 12004KT 24/19 A2989 RMK A01 T02370192  RH  076%=      5-min Rain = 0
KST2 161414Z 12004KT 24/19 A2989 RMK A01 T02370192  RH  076%=      5-min Rain = 0
KST2 161415Z 12004KT 24/19 A2989 RMK A01 T02370192  RH  076%=      5-min Rain = 0
KST2 161416Z 13003KT 24/19 A2989 RMK A01 T02380193  RH  076%=      5-min Rain = 0
KST2 161417Z 12005KT 24/19 A2989 RMK A01 T02380193  RH  076%=      5-min Rain = 0
KST2 161418Z 13004KT 24/19 A2989 RMK A01 T02390194  RH  076%=      5-min Rain = 0
KST2 161419Z 12002KT 24/19 A2989 RMK A01 T02390193  RH  076%=      5-min Rain = 0
KST2 161420Z 10002KT 24/19 A2989 RMK A01 T02390194  RH  076%=      5-min Rain = 0
KST2 161421Z 10003KT 24/20 A2989 RMK A01 T02400195  RH  076%=      5-min Rain = 0
KST2 161422Z 12003KT 24/19 A2989 RMK A01 T02400194  RH  075%=      5-min Rain = 0
KST2 161423Z 15004KT 24/20 A2989 RMK A01 T02400195  RH  076%=      5-min Rain = 0
KST2 161424Z 14004KT 24/20 A2989 RMK A01 T02410195  RH  075%=      5-min Rain = 0
KST2 161425Z 13003KT 24/20 A2989 RMK A01 T02410195  RH  075%=      5-min Rain = 0
KST2 161426Z 14004KT 24/20 A2989 RMK A01 T02410195  RH  075%=      5-min Rain = 0
KST2 161427Z 15004KT 24/20 A299 RMK A01 T02420195  RH  075%=      5-min Rain = 0
KST2 161428Z 16003KT 24/20 A299 RMK A01 T02420195  RH  075%=      5-min Rain = 0
KST2 161429Z 16004KT 24/20 A2989 RMK A01 T02420196  RH  075%=      5-min Rain = 0
KST2 161430Z 16004KT 24/20 A2989 RMK A01 T02420196  RH  075%=      5-min Rain = 0
KST2 161431Z 15004KT 24/20 A2989 RMK A01 T02420196  RH  075%=      5-min Rain = 0
KST2 161432Z 14002KT 24/20 A2989 RMK A01 T02420196  RH  075%=      5-min Rain = 0
KST2 161433Z 16003KT 24/20 A2989 RMK A01 T02430196  RH  075%=      5-min Rain = 0
KST2 161434Z 17003KT 24/20 A2989 RMK A01 T02430195  RH  075%=      5-min Rain = 0
KST2 161435Z 15003KT 24/20 A2989 RMK A01 T02430196  RH  075%=      5-min Rain = 0
KST2 161436Z 15003KT 24/20 A2989 RMK A01 T02430196  RH  075%=      5-min Rain = 0
KST2 161437Z 15004KT 24/20 A2989 RMK A01 T02440197  RH  075%=      5-min Rain = 0
KST2 161438Z 12003KT 25/20 A2989 RMK A01 T02450198  RH  075%=      5-min Rain = 0
KST2 161439Z 12003KT 25/20 A2989 RMK A01 T02470198  RH  074%=      5-min Rain = 0
KST2 161440Z 16004KT 25/20 A2989 RMK A01 T02470198  RH  074%=      5-min Rain = 0
KST2 161441Z 17003KT 25/20 A2989 RMK A01 T02480198  RH  074%=      5-min Rain = 0
KST2 161442Z 17004KT 25/20 A2989 RMK A01 T02480199  RH  074%=      5-min Rain = 0
KST2 161443Z 15003KT 25/20 A2989 RMK A01 T02480199  RH  074%=      5-min Rain = 0
KST2 161444Z 16003KT 25/20 A2989 RMK A01 T02490200  RH  074%=      5-min Rain = 0
KST2 161445Z 13003KT 25/20 A2989 RMK A01 T02500200  RH  074%=      5-min Rain = 0
KST2 161446Z 13002KT 25/20 A2989 RMK A01 T02510200  RH  073%=      5-min Rain = 0
KST2 161447Z 12001KT 25/20 A2989 RMK A01 T02510201  RH  074%=      5-min Rain = 0
KST2 161448Z 16002KT 25/20 A2989 RMK A01 T02520203  RH  074%=      5-min Rain = 0
KST2 161449Z 14001KT 26/20 A2989 RMK A01 T02550204  RH  074%=      5-min Rain = 0
KST2 161450Z 11003KT 26/21 A2989 RMK A01 T02570206  RH  073%=      5-min Rain = 0
KST2 161451Z 14004KT 26/21 A2989 RMK A01 T02590206  RH  073%=      5-min Rain = 0
KST2 161452Z 17004KT 26/21 A2989 RMK A01 T02600207  RH  073%=      5-min Rain = 0
KST2 161453Z 20003KT 26/21 A2989 RMK A01 T02610207  RH  072%=      5-min Rain = 0
KST2 161454Z 23002KT 26/21 A299 RMK A01 T02610207  RH  072%=      5-min Rain = 0
KST2 161455Z 26002KT 26/21 A299 RMK A01 T02600206  RH  072%=      5-min Rain = 0
KST2 161456Z 31003KT 26/21 A299 RMK A01 T02600206  RH  072%=      5-min Rain = 0
KST2 161457Z 32003KT 26/21 A299 RMK A01 T02600206  RH  072%=      5-min Rain = 0
KST2 161458Z 33007KT 26/21 A299 RMK A01 T02600206  RH  072%=      5-min Rain = 0
KST2 161459Z 34006KT 26/20 A299 RMK A01 T02580204  RH  072%=      5-min Rain = 0
KST2 161500Z 35005KT 26/20 A299 RMK A01 T02560202  RH  072%=      5-min Rain = 0
KST2 161501Z 35005KT 26/20 A299 RMK A01 T02550201  RH  072%=      5-min Rain = 0
KST2 161502Z 34006KT 25/20 A299 RMK A01 T02540200  RH  072%=      5-min Rain = 0
KST2 161503Z 33003KT 25/20 A299 RMK A01 T02530200  RH  072%=      5-min Rain = 0
KST2 161504Z 34004KT 25/20 A299 RMK A01 T02520199  RH  072%=      5-min Rain = 0
KST2 161505Z 34004KT 25/20 A299 RMK A01 T02520200  RH  073%=      5-min Rain = 0
KST2 161506Z 34003KT 25/20 A2989 RMK A01 T02540201  RH  073%=      5-min Rain = 0
KST2 161507Z 35003KT 26/20 A2989 RMK A01 T02550202  RH  072%=      5-min Rain = 0
KST2 161508Z 36002KT 26/20 A2989 RMK A01 T02560201  RH  072%=      5-min Rain = 0
KST2 161509Z 01001KT 26/20 A2989 RMK A01 T02550201  RH  072%=      5-min Rain = 0
KST2 161510Z 01002KT 26/20 A2989 RMK A01 T02550201  RH  072%=      5-min Rain = 0
KST2 161511Z 36003KT 26/20 A2989 RMK A01 T02550201  RH  072%=      5-min Rain = 0
KST2 161512Z 00003KT 26/20 A2989 RMK A01 T02550201  RH  072%=      5-min Rain = 0
KST2 161513Z 02003KT 26/20 A2989 RMK A01 T02550201  RH  072%=      5-min Rain = 0
KST2 161514Z 35002KT 26/20 A2989 RMK A01 T02560201  RH  072%=      5-min Rain = 0
KST2 161515Z 34003KT 26/20 A2989 RMK A01 T02570202  RH  072%=      5-min Rain = 0
KST2 161516Z 35004KT 26/20 A2989 RMK A01 T02570202  RH  071%=      5-min Rain = 0
KST2 161517Z 02004KT 26/20 A2989 RMK A01 T02570202  RH  071%=      5-min Rain = 0
KST2 161518Z 02005KT 26/20 A2989 RMK A01 T02580203  RH  072%=      5-min Rain = 0
KST2 161519Z 35003KT 26/20 A2989 RMK A01 T02590203  RH  071%=      5-min Rain = 0
KST2 161520Z 34003KT 26/20 A2989 RMK A01 T02600203  RH  071%=      5-min Rain = 0
KST2 161521Z 33003KT 26/20 A2989 RMK A01 T02600203  RH  071%=      5-min Rain = 0
KST2 161522Z 35001KT 26/20 A2989 RMK A01 T02600203  RH  071%=      5-min Rain = 0
KST2 161523Z 33001KT 26/20 A2988 RMK A01 T02600203  RH  071%=      5-min Rain = 0
KST2 161524Z 09002KT 26/20 A2988 RMK A01 T02600204  RH  071%=      5-min Rain = 0
KST2 161525Z 09002KT 26/20 A2988 RMK A01 T02610204  RH  071%=      5-min Rain = 0
KST2 161526Z 08002KT 26/21 A2988 RMK A01 T02620205  RH  071%=      5-min Rain = 0
KST2 161527Z 10000KT 26/21 A2988 RMK A01 T02630205  RH  071%=      5-min Rain = 0
KST2 161528Z 02000KT 26/21 A2988 RMK A01 T02640207  RH  071%=      5-min Rain = 0
KST2 161529Z 03001KT 27/21 A2988 RMK A01 T02650207  RH  070%=      5-min Rain = 0
KST2 161530Z 09002KT 27/21 A2988 RMK A01 T02660208  RH  070%=      5-min Rain = 0
KST2 161531Z 06002KT 27/21 A2988 RMK A01 T02680209  RH  070%=      5-min Rain = 0
KST2 161532Z 05001KT 27/21 A2988 RMK A01 T02680208  RH  070%=      5-min Rain = 0
KST2 161533Z 00002KT 27/21 A2988 RMK A01 T02680208  RH  070%=      5-min Rain = 0
KST2 161534Z 00003KT 27/21 A2988 RMK A01 T02680209  RH  070%=      5-min Rain = 0
KST2 161535Z 01003KT 27/21 A2988 RMK A01 T02690209  RH  070%=      5-min Rain = 0
KST2 161536Z 03002KT 27/21 A2988 RMK A01 T02690209  RH  070%=      5-min Rain = 0
KST2 161537Z 05002KT 27/21 A2988 RMK A01 T02690210  RH  070%=      5-min Rain = 0
KST2 161538Z 05003KT 27/21 A2988 RMK A01 T02700211  RH  070%=      5-min Rain = 0
KST2 161539Z 02002KT 27/21 A2988 RMK A01 T02700209  RH  069%=      5-min Rain = 0
KST2 161540Z 01001KT 27/21 A2988 RMK A01 T02700210  RH  069%=      5-min Rain = 0
KST2 161541Z 34002KT 27/21 A2988 RMK A01 T02710211  RH  070%=      5-min Rain = 0
KST2 161542Z 35003KT 27/21 A2988 RMK A01 T02720212  RH  069%=      5-min Rain = 0
KST2 161543Z 03002KT 27/21 A2988 RMK A01 T02740213  RH  069%=      5-min Rain = 0
KST2 161544Z 02004KT 28/21 A2988 RMK A01 T02750214  RH  069%=      5-min Rain = 0
KST2 161545Z 02004KT 28/21 A2988 RMK A01 T02750212  RH  069%=      5-min Rain = 0
KST2 161546Z 00004KT 27/21 A2988 RMK A01 T02740213  RH  069%=      5-min Rain = 0
KST2 161547Z 35003KT 28/21 A2988 RMK A01 T02750212  RH  069%=      5-min Rain = 0
KST2 161548Z 34002KT 28/21 A2988 RMK A01 T02750212  RH  069%=      5-min Rain = 0
KST2 161549Z 35003KT 28/21 A2988 RMK A01 T02750213  RH  069%=      5-min Rain = 0
KST2 161550Z 01001KT 28/21 A2988 RMK A01 T02750213  RH  069%=      5-min Rain = 0
KST2 161551Z 01000KT 28/21 A2988 RMK A01 T02770213  RH  068%=      5-min Rain = 0
KST2 161552Z 31001KT 28/21 A2988 RMK A01 T02770213  RH  068%=      5-min Rain = 0
KST2 161553Z 30003KT 28/21 A2988 RMK A01 T02780214  RH  068%=      5-min Rain = 0
KST2 161554Z 28003KT 28/21 A2988 RMK A01 T02790214  RH  068%=      5-min Rain = 0
KST2 161555Z 30003KT 28/21 A2988 RMK A01 T02780213  RH  067%=      5-min Rain = 0
KST2 161556Z 30002KT 28/21 A2988 RMK A01 T02780213  RH  068%=      5-min Rain = 0
KST2 161557Z 23003KT 28/21 A2988 RMK A01 T02770213  RH  068%=      5-min Rain = 0
KST2 161558Z 22003KT 28/21 A2988 RMK A01 T02770213  RH  068%=      5-min Rain = 0
KST2 161559Z 25003KT 28/21 A2988 RMK A01 T02770212  RH  068%=      5-min Rain = 0
KST2 161600Z 24003KT 28/21 A2988 RMK A01 T02780213  RH  068%=      5-min Rain = 0
KST2 161601Z 25004KT 28/21 A2988 RMK A01 T02780213  RH  068%=      5-min Rain = 0
KST2 161602Z 20002KT 28/21 A2988 RMK A01 T02780213  RH  068%=      5-min Rain = 0
KST2 161603Z 20001KT 28/21 A2988 RMK A01 T02790213  RH  067%=      5-min Rain = 0
KST2 161604Z 19000KT 28/21 A2988 RMK A01 T02790213  RH  067%=      5-min Rain = 0
KST2 161605Z 36002KT 28/22 A2988 RMK A01 T02800215  RH  068%=      5-min Rain = 0
KST2 161606Z 34002KT 28/22 A2988 RMK A01 T02820216  RH  068%=      5-min Rain = 0
KST2 161607Z 12003KT 28/22 A2988 RMK A01 T02840216  RH  067%=      5-min Rain = 0
KST2 161608Z 11002KT 29/22 A2988 RMK A01 T02850216  RH  066%=      5-min Rain = 0
KST2 161609Z 06002KT 29/22 A2988 RMK A01 T02850216  RH  066%=      5-min Rain = 0
KST2 161610Z 03001KT 29/22 A2988 RMK A01 T02850216  RH  066%=      5-min Rain = 0
KST2 161611Z 20001KT 29/22 A2988 RMK A01 T02850216  RH  066%=      5-min Rain = 0
KST2 161612Z 23002KT 29/22 A2988 RMK A01 T02860217  RH  066%=      5-min Rain = 0
KST2 161613Z 22005KT 29/22 A2988 RMK A01 T02860217  RH  066%=      5-min Rain = 0
KST2 161614Z 24002KT 29/22 A2988 RMK A01 T02860216  RH  066%=      5-min Rain = 0
KST2 161615Z 22000KT 29/22 A2988 RMK A01 T02860216  RH  066%=      5-min Rain = 0
KST2 161616Z 22002KT 29/22 A2988 RMK A01 T02860217  RH  066%=      5-min Rain = 0
KST2 161617Z 23003KT 29/22 A2988 RMK A01 T02870217  RH  066%=      5-min Rain = 0
KST2 161618Z 27004KT 29/22 A2988 RMK A01 T02870217  RH  066%=      5-min Rain = 0
KST2 161619Z 28009KT 29/22 A2988 RMK A01 T02870216  RH  065%=      5-min Rain = 0
KST2 161620Z 28008KT 29/22 A2989 RMK A01 T02870216  RH  065%=      5-min Rain = 0
KST2 161621Z 30008KT 29/22 A2989 RMK A01 T02870216  RH  065%=      5-min Rain = 0
KST2 161622Z 31008KT 29/22 A2989 RMK A01 T02870215  RH  065%=      5-min Rain = 0
KST2 161623Z 32007KT 29/21 A2989 RMK A01 T02870214  RH  065%=      5-min Rain = 0
KST2 161624Z 33006KT 29/22 A2989 RMK A01 T02870215  RH  065%=      5-min Rain = 0
KST2 161625Z 35006KT 29/21 A2989 RMK A01 T02860214  RH  065%=      5-min Rain = 0
KST2 161626Z 34006KT 29/22 A2989 RMK A01 T02860215  RH  065%=      5-min Rain = 0
KST2 161627Z 34008KT 29/22 A2989 RMK A01 T02870216  RH  065%=      5-min Rain = 0
KST2 161628Z 33008KT 29/22 A2989 RMK A01 T02880215  RH  065%=      5-min Rain = 0
KST2 161629Z 32009KT 29/22 A2989 RMK A01 T02880216  RH  065%=      5-min Rain = 0
KST2 161630Z 32006KT 29/21 A2989 RMK A01 T02880214  RH  064%=      5-min Rain = 0
KST2 161631Z 35004KT 29/21 A2989 RMK A01 T02870214  RH  065%=      5-min Rain = 0
KST2 161632Z 33009KT 29/21 A2989 RMK A01 T02860213  RH  065%=      5-min Rain = 0
KST2 161633Z 32011KT 29/21 A2989 RMK A01 T02850214  RH  065%=      5-min Rain = 0
KST2 161634Z 33007KT 29/21 A2989 RMK A01 T02860214  RH  065%=      5-min Rain = 0
KST2 161635Z 34006KT 29/21 A2989 RMK A01 T02870214  RH  065%=      5-min Rain = 0
KST2 161636Z 33008KT 29/21 A2989 RMK A01 T02870214  RH  065%=      5-min Rain = 0
KST2 161637Z 33009KT 29/21 A2989 RMK A01 T02860213  RH  064%=      5-min Rain = 0
KST2 161638Z 34012KT 29/21 A299 RMK A01 T02850213  RH  065%=      5-min Rain = 0
KST2 161639Z 34014KT 28/21 A299 RMK A01 T02840211  RH  065%=      5-min Rain = 0
KST2 161640Z 35015KT 28/21 A299 RMK A01 T02810209  RH  065%=      5-min Rain = 0
KST2 161641Z 35014KT 28/21 A299 RMK A01 T02780208  RH  065%=      5-min Rain = 0
KST2 161642Z 35015KT 28/21 A2989 RMK A01 T02770207  RH  066%=      5-min Rain = 0
KST2 161643Z 35013KT 28/21 A2989 RMK A01 T02760207  RH  066%=      5-min Rain = 0
KST2 161644Z 36015KT 28/21 A2989 RMK A01 T02760208  RH  066%=      5-min Rain = 0
KST2 161645Z 35016KT 28/21 A2989 RMK A01 T02770209  RH  066%=      5-min Rain = 0
KST2 161646Z 36015KT 28/21 A2989 RMK A01 T02790210  RH  066%=      5-min Rain = 0
KST2 161647Z 36014KT 28/21 A2989 RMK A01 T02790210  RH  066%=      5-min Rain = 0
KST2 161648Z 00013KT 28/21 A2989 RMK A01 T02780209  RH  066%=      5-min Rain = 0
KST2 161649Z 35014KT 28/21 A2989 RMK A01 T02760209  RH  067%=      5-min Rain = 0
KST2 161650Z 35015KT 28/21 A299 RMK A01 T02760208  RH  066%=      5-min Rain = 0
KST2 161651Z 35013KT 28/21 A299 RMK A01 T02760207  RH  066%=      5-min Rain = 0
KST2 161652Z 34014KT 27/21 A299 RMK A01 T02740206  RH  066%=      5-min Rain = 0
KST2 161653Z 01012KT 27/21 A299 RMK A01 T02720205  RH  067%=      5-min Rain = 0
KST2 161654Z 00012KT 27/20 A299 RMK A01 T02710204  RH  067%=      5-min Rain = 0
KST2 161655Z 35013KT 27/20 A299 RMK A01 T02690203  RH  067%=      5-min Rain = 0
KST2 161656Z 35013KT 27/20 A299 RMK A01 T02680204  RH  068%=      5-min Rain = 0
KST2 161657Z 35017KT 27/20 A2989 RMK A01 T02680204  RH  068%=      5-min Rain = 0
KST2 161658Z 36016KT 27/20 A2989 RMK A01 T02680203  RH  067%=      5-min Rain = 0
KST2 161659Z 35014KT 27/20 A2989 RMK A01 T02680204  RH  068%=      5-min Rain = 0
KST2 161700Z 35016KT 27/21 A2989 RMK A01 T02680205  RH  068%=      5-min Rain = 0
KST2 161701Z 35015KT 27/20 A2989 RMK A01 T02680204  RH  068%=      5-min Rain = 0
KST2 161702Z 34014KT 27/20 A2989 RMK A01 T02680204  RH  068%=      5-min Rain = 0
KST2 161703Z 35013KT 27/21 A2989 RMK A01 T02680205  RH  068%=      5-min Rain = 0
KST2 161704Z 35013KT 27/21 A299 RMK A01 T02680205  RH  068%=      5-min Rain = 0
KST2 161705Z 36013KT 27/21 A299 RMK A01 T02680205  RH  068%=      5-min Rain = 0
KST2 161706Z 00011KT 27/20 A299 RMK A01 T02680204  RH  068%=      5-min Rain = 0
KST2 161707Z 01013KT 27/20 A299 RMK A01 T02670204  RH  068%=      5-min Rain = 0
KST2 161708Z 00012KT 27/20 A299 RMK A01 T02660204  RH  069%=      5-min Rain = 0
KST2 161709Z 01014KT 27/20 A2989 RMK A01 T02650204  RH  069%=      5-min Rain = 0
KST2 161710Z 35015KT 27/20 A2989 RMK A01 T02660204  RH  069%=      5-min Rain = 0
KST2 161711Z 36010KT 27/21 A2989 RMK A01 T02670206  RH  069%=      5-min Rain = 0
KST2 161712Z 00011KT 27/21 A2989 RMK A01 T02700208  RH  069%=      5-min Rain = 0
KST2 161713Z 00014KT 27/21 A2989 RMK A01 T02710208  RH  069%=      5-min Rain = 0
KST2 161714Z 35016KT 27/21 A2989 RMK A01 T02700207  RH  068%=      5-min Rain = 0
KST2 161715Z 36013KT 27/21 A2989 RMK A01 T02700208  RH  069%=      5-min Rain = 0
KST2 161716Z 36015KT 27/21 A2989 RMK A01 T02710208  RH  068%=      5-min Rain = 0
KST2 161717Z 36014KT 27/21 A2989 RMK A01 T02720209  RH  068%=      5-min Rain = 0
KST2 161718Z 01013KT 27/21 A2989 RMK A01 T02740211  RH  069%=      5-min Rain = 0
KST2 161719Z 00011KT 28/21 A2989 RMK A01 T02760212  RH  068%=      5-min Rain = 0
KST2 161720Z 35013KT 28/21 A2989 RMK A01 T02770213  RH  068%=      5-min Rain = 0
KST2 161721Z 36015KT 28/21 A2989 RMK A01 T02770212  RH  068%=      5-min Rain = 0
KST2 161722Z 36016KT 28/21 A2989 RMK A01 T02760211  RH  068%=      5-min Rain = 0
KST2 161723Z 35016KT 27/21 A2989 RMK A01 T02740210  RH  068%=      5-min Rain = 0
KST2 161724Z 36015KT 27/21 A2989 RMK A01 T02730209  RH  068%=      5-min Rain = 0
KST2 161725Z 01014KT 27/21 A2989 RMK A01 T02730209  RH  068%=      5-min Rain = 0
KST2 161726Z 01013KT 27/21 A2989 RMK A01 T02720208  RH  068%=      5-min Rain = 0
KST2 161727Z 02014KT 27/21 A2989 RMK A01 T02710208  RH  068%=      5-min Rain = 0
KST2 161728Z 02015G20KT 27/21 A2989 RMK A01 T02700207  RH  068%=      5-min Rain = 0
KST2 161729Z 01015KT 27/21 A2989 RMK A01 T02700207  RH  068%=      5-min Rain = 0
KST2 161730Z 02014G19KT 27/21 A2989 RMK A01 T02690206  RH  069%=      5-min Rain = 0
KST2 161731Z 01015KT 27/21 A2989 RMK A01 T02690206  RH  069%=      5-min Rain = 0
KST2 161732Z 01013KT 27/21 A2989 RMK A01 T02680206  RH  068%=      5-min Rain = 0
KST2 161733Z 01013G20KT 27/21 A2988 RMK A01 T02680207  RH  069%=      5-min Rain = 0
KST2 161734Z 36013KT 27/21 A2988 RMK A01 T02700208  RH  069%=      5-min Rain = 0
KST2 161735Z 01013KT 27/21 A2988 RMK A01 T02710207  RH  068%=      5-min Rain = 0
KST2 161736Z 01012KT 27/21 A2989 RMK A01 T02700207  RH  068%=      5-min Rain = 0
KST2 161737Z 02011KT 27/21 A2989 RMK A01 T02700208  RH  069%=      5-min Rain = 0
KST2 161738Z 01016KT 27/21 A2989 RMK A01 T02700207  RH  068%=      5-min Rain = 0
KST2 161739Z 01011G16KT 27/21 A2989 RMK A01 T02690207  RH  069%=      5-min Rain = 0
KST2 161740Z 01015KT 27/21 A2989 RMK A01 T02690207  RH  069%=      5-min Rain = 0
KST2 161741Z 00015KT 27/21 A2989 RMK A01 T02700206  RH  068%=      5-min Rain = 0
KST2 161742Z 00014KT 27/21 A2989 RMK A01 T02680205  RH  068%=      5-min Rain = 0
KST2 161743Z 01016KT 27/20 A2989 RMK A01 T02660203  RH  068%=      5-min Rain = 0
KST2 161744Z 01011KT 27/20 A2989 RMK A01 T02650203  RH  069%=      5-min Rain = 0
KST2 161745Z 03015KT 27/21 A2989 RMK A01 T02650205  RH  069%=      5-min Rain = 0
KST2 161746Z 02015KT 27/21 A2989 RMK A01 T02670205  RH  069%=      5-min Rain = 0
KST2 161747Z 01012KT 27/21 A2989 RMK A01 T02670205  RH  069%=      5-min Rain = 0
KST2 161748Z 02012KT 27/21 A2989 RMK A01 T02680207  RH  069%=      5-min Rain = 0
KST2 161749Z 03016KT 27/21 A2989 RMK A01 T02700207  RH  069%=      5-min Rain = 0
KST2 161750Z 02014G19KT 27/21 A2989 RMK A01 T02710208  RH  068%=      5-min Rain = 0
KST2 161751Z 00018KT 27/21 A2989 RMK A01 T02720207  RH  068%=      5-min Rain = 0
KST2 161752Z 00016KT 27/21 A2989 RMK A01 T02710206  RH  067%=      5-min Rain = 0
KST2 161753Z 02015KT 27/21 A2989 RMK A01 T02700205  RH  068%=      5-min Rain = 0
KST2 161754Z 01012KT 27/21 A2989 RMK A01 T02690205  RH  068%=      5-min Rain = 0
KST2 161755Z 02012KT 27/21 A2989 RMK A01 T02700206  RH  068%=      5-min Rain = 0
KST2 161756Z 02013KT 27/21 A2988 RMK A01 T02720207  RH  068%=      5-min Rain = 0
KST2 161757Z 01014G19KT 27/21 A2988 RMK A01 T02720206  RH  067%=      5-min Rain = 0
KST2 161758Z 00015KT 27/21 A2988 RMK A01 T02720207  RH  067%=      5-min Rain = 0
KST2 161759Z 00014KT 27/21 A2988 RMK A01 T02730206  RH  067%=      5-min Rain = 0
KST2 161800Z 01012KT 27/21 A2988 RMK A01 T02720205  RH  067%=      5-min Rain = 0
KST2 161801Z 01016KT 27/20 A2987 RMK A01 T02710204  RH  067%=      5-min Rain = 0
KST2 161802Z 02015KT 27/20 A2987 RMK A01 T02690202  RH  067%=      5-min Rain = 0
KST2 161803Z 02014KT 27/20 A2987 RMK A01 T02680202  RH  067%=      5-min Rain = 0
KST2 161804Z 02013KT 27/20 A2987 RMK A01 T02680202  RH  067%=      5-min Rain = 0
KST2 161805Z 36012KT 27/20 A2987 RMK A01 T02690204  RH  068%=      5-min Rain = 0
KST2 161806Z 35013KT 27/21 A2986 RMK A01 T02720206  RH  067%=      5-min Rain = 0
KST2 161807Z 35017KT 27/21 A2986 RMK A01 T02740205  RH  066%=      5-min Rain = 0
KST2 161808Z 00013KT 27/21 A2987 RMK A01 T02740206  RH  066%=      5-min Rain = 0
KST2 161809Z 00014KT 28/21 A2987 RMK A01 T02750206  RH  066%=      5-min Rain = 0
KST2 161810Z 01012G17KT 27/20 A2987 RMK A01 T02730204  RH  066%=      5-min Rain = 0
KST2 161811Z 00010G15KT 27/20 A2987 RMK A01 T02710204  RH  067%=      5-min Rain = 0
KST2 161812Z 01013KT 27/20 A2987 RMK A01 T02710204  RH  067%=      5-min Rain = 0
KST2 161813Z 00014KT 27/20 A2987 RMK A01 T02710204  RH  067%=      5-min Rain = 0
KST2 161814Z 01011KT 27/20 A2987 RMK A01 T02700202  RH  066%=      5-min Rain = 0
KST2 161815Z 01014KT 27/20 A2987 RMK A01 T02690203  RH  067%=      5-min Rain = 0
KST2 161816Z 02014KT 27/20 A2987 RMK A01 T02690202  RH  067%=      5-min Rain = 0
KST2 161817Z 01013KT 27/20 A2987 RMK A01 T02690202  RH  067%=      5-min Rain = 0
KST2 161818Z 01014KT 27/20 A2987 RMK A01 T02700203  RH  067%=      5-min Rain = 0
KST2 161819Z 03013KT 27/20 A2987 RMK A01 T02710203  RH  066%=      5-min Rain = 0
KST2 161820Z 01012KT 27/20 A2987 RMK A01 T02710203  RH  066%=      5-min Rain = 0
KST2 161821Z 02015KT 27/20 A2987 RMK A01 T02700203  RH  067%=      5-min Rain = 0
KST2 161822Z 01016KT 27/20 A2987 RMK A01 T02710204  RH  066%=      5-min Rain = 0
KST2 161823Z 00015KT 27/20 A2987 RMK A01 T02720203  RH  066%=      5-min Rain = 0
KST2 161824Z 00013KT 27/20 A2987 RMK A01 T02710203  RH  066%=      5-min Rain = 0
KST2 161825Z 01014KT 27/21 A2987 RMK A01 T02720205  RH  066%=      5-min Rain = 0
KST2 161826Z 01013KT 27/20 A2987 RMK A01 T02730204  RH  066%=      5-min Rain = 0
KST2 161827Z 00016KT 27/21 A2987 RMK A01 T02730205  RH  066%=      5-min Rain = 0
KST2 161828Z 02015KT 27/20 A2987 RMK A01 T02730204  RH  066%=      5-min Rain = 0
KST2 161829Z 02014KT 27/20 A2987 RMK A01 T02720203  RH  066%=      5-min Rain = 0
KST2 161830Z 03013KT 27/20 A2987 RMK A01 T02720202  RH  066%=      5-min Rain = 0
KST2 161831Z 03011KT 27/20 A2987 RMK A01 T02700203  RH  066%=      5-min Rain = 0
KST2 161832Z 01009KT 27/20 A2987 RMK A01 T02710203  RH  066%=      5-min Rain = 0
KST2 161833Z 36013KT 27/20 A2987 RMK A01 T02720204  RH  066%=      5-min Rain = 0
KST2 161834Z 36010KT 27/20 A2987 RMK A01 T02730203  RH  066%=      5-min Rain = 0
KST2 161835Z 01011KT 27/21 A2987 RMK A01 T02730205  RH  066%=      5-min Rain = 0
KST2 161836Z 02008KT 27/21 A2987 RMK A01 T02740206  RH  066%=      5-min Rain = 0
KST2 161837Z 03011KT 28/21 A2987 RMK A01 T02760207  RH  066%=      5-min Rain = 0
KST2 161838Z 04016KT 28/21 A2987 RMK A01 T02770205  RH  065%=      5-min Rain = 0
KST2 161839Z 04014KT 27/20 A2987 RMK A01 T02740202  RH  065%=      5-min Rain = 0
KST2 161840Z 05010KT 27/20 A2987 RMK A01 T02700199  RH  065%=      5-min Rain = 0
KST2 161841Z 05013KT 27/20 A2987 RMK A01 T02670197  RH  066%=      5-min Rain = 0
KST2 161842Z 05013KT 27/20 A2987 RMK A01 T02650196  RH  066%=      5-min Rain = 0
KST2 161843Z 05012KT 26/20 A2987 RMK A01 T02630196  RH  066%=      5-min Rain = 0
KST2 161844Z 04013KT 26/20 A2987 RMK A01 T02630196  RH  067%=      5-min Rain = 0
KST2 161845Z 04013KT 26/20 A2987 RMK A01 T02620196  RH  067%=      5-min Rain = 0
KST2 161846Z 03011KT 26/20 A2987 RMK A01 T02630198  RH  067%=      5-min Rain = 0
KST2 161847Z 01012KT 27/20 A2987 RMK A01 T02660201  RH  067%=      5-min Rain = 0
KST2 161848Z 02013KT 27/20 A2987 RMK A01 T02680202  RH  067%=      5-min Rain = 0
KST2 161849Z 02010KT 27/20 A2987 RMK A01 T02690201  RH  066%=      5-min Rain = 0
KST2 161850Z 03012KT 27/20 A2987 RMK A01 T02690202  RH  067%=      5-min Rain = 0
KST2 161851Z 02010KT 27/20 A2987 RMK A01 T02690202  RH  067%=      5-min Rain = 0
KST2 161852Z 01012KT 27/20 A2986 RMK A01 T02700203  RH  067%=      5-min Rain = 0
KST2 161853Z 01013KT 27/20 A2987 RMK A01 T02710204  RH  067%=      5-min Rain = 0
KST2 161854Z 02009KT 27/20 A2987 RMK A01 T02720204  RH  066%=      5-min Rain = 0
KST2 161855Z 04013KT 27/20 A2987 RMK A01 T02720204  RH  066%=      5-min Rain = 0
KST2 161856Z 04010KT 27/20 A2987 RMK A01 T02700202  RH  066%=      5-min Rain = 0
KST2 161857Z 03011KT 27/20 A2987 RMK A01 T02690202  RH  067%=      5-min Rain = 0
KST2 161858Z 02011G17KT 27/20 A2987 RMK A01 T02680201  RH  067%=      5-min Rain = 0
KST2 161859Z 01011G16KT 27/20 A2987 RMK A01 T02680201  RH  067%=      5-min Rain = 0
KST2 161900Z 01011KT 27/20 A2987 RMK A01 T02670200  RH  067%=      5-min Rain = 0
KST2 161901Z 03010KT 27/20 A2987 RMK A01 T02670201  RH  067%=      5-min Rain = 0
KST2 161902Z 04011KT 27/20 A2987 RMK A01 T02670200  RH  067%=      5-min Rain = 0
KST2 161903Z 04011KT 27/20 A2987 RMK A01 T02670200  RH  067%=      5-min Rain = 0
KST2 161904Z 04011KT 27/20 A2987 RMK A01 T02660200  RH  067%=      5-min Rain = 0
KST2 161905Z 04011KT 27/20 A2987 RMK A01 T02660200  RH  067%=      5-min Rain = 0
KST2 161906Z 04011KT 27/20 A2988 RMK A01 T02660200  RH  067%=      5-min Rain = 0
KST2 161907Z 05010KT 27/20 A2987 RMK A01 T02670201  RH  067%=      5-min Rain = 0
KST2 161908Z 05011KT 27/20 A2987 RMK A01 T02670201  RH  067%=      5-min Rain = 0
KST2 161909Z 05010KT 27/20 A2987 RMK A01 T02670202  RH  067%=      5-min Rain = 0
KST2 161910Z 05012KT 27/20 A2988 RMK A01 T02680203  RH  068%=      5-min Rain = 0
KST2 161911Z 05012KT 27/20 A2988 RMK A01 T02690203  RH  067%=      5-min Rain = 0
KST2 161912Z 04010KT 27/20 A2988 RMK A01 T02690203  RH  067%=      5-min Rain = 0
KST2 161913Z 03011KT 27/20 A2988 RMK A01 T02700204  RH  067%=      5-min Rain = 0
KST2 161914Z 04012KT 27/20 A2988 RMK A01 T02710204  RH  067%=      5-min Rain = 0
KST2 161915Z 04011KT 27/20 A2988 RMK A01 T02700203  RH  067%=      5-min Rain = 0
KST2 161916Z 04013KT 27/20 A2988 RMK A01 T02690203  RH  067%=      5-min Rain = 0
KST2 161917Z 04012KT 27/20 A2988 RMK A01 T02690203  RH  067%=      5-min Rain = 0
KST2 161918Z 05014KT 27/20 A2987 RMK A01 T02690203  RH  067%=      5-min Rain = 0
KST2 161919Z 04015KT 27/20 A2987 RMK A01 T02690203  RH  067%=      5-min Rain = 0
KST2 161920Z 04014KT 27/20 A2987 RMK A01 T02690202  RH  067%=      5-min Rain = 0
KST2 161921Z 03012KT 27/20 A2987 RMK A01 T02680202  RH  067%=      5-min Rain = 0
KST2 161922Z 04012KT 27/20 A2987 RMK A01 T02680202  RH  067%=      5-min Rain = 0
KST2 161923Z 02012KT 27/20 A2987 RMK A01 T02690203  RH  067%=      5-min Rain = 0
KST2 161924Z 03013KT 27/20 A2987 RMK A01 T02700203  RH  067%=      5-min Rain = 0
KST2 161925Z 03013KT 27/21 A2987 RMK A01 T02700205  RH  068%=      5-min Rain = 0
KST2 161926Z 04011KT 27/21 A2987 RMK A01 T02710205  RH  067%=      5-min Rain = 0
KST2 161927Z 05013KT 27/21 A2987 RMK A01 T02720205  RH  067%=      5-min Rain = 0
KST2 161928Z 04014KT 27/21 A2987 RMK A01 T02720206  RH  067%=      5-min Rain = 0
KST2 161929Z 04013KT 27/21 A2987 RMK A01 T02730205  RH  066%=      5-min Rain = 0
KST2 161930Z 04014KT 27/20 A2988 RMK A01 T02720204  RH  066%=      5-min Rain = 0
KST2 161931Z 03011KT 27/20 A2988 RMK A01 T02700202  RH  066%=      5-min Rain = 0
KST2 161932Z 05013KT 27/20 A2988 RMK A01 T02690203  RH  067%=      5-min Rain = 0
KST2 161933Z 06012KT 27/20 A2988 RMK A01 T02690203  RH  067%=      5-min Rain = 0
KST2 161934Z 05013KT 27/20 A2988 RMK A01 T02680201  RH  067%=      5-min Rain = 0
KST2 161935Z 06015KT 27/20 A2988 RMK A01 T02660200  RH  067%=      5-min Rain = 0
KST2 161936Z 05013KT 27/20 A2988 RMK A01 T02650200  RH  067%=      5-min Rain = 0
KST2 161937Z 04012KT 27/20 A2988 RMK A01 T02650200  RH  068%=      5-min Rain = 0
KST2 161938Z 05011KT 26/20 A2988 RMK A01 T02640200  RH  068%=      5-min Rain = 0
KST2 161939Z 06013KT 27/20 A2988 RMK A01 T02650200  RH  068%=      5-min Rain = 0
KST2 161940Z 06011KT 27/20 A2988 RMK A01 T02650200  RH  067%=      5-min Rain = 0
KST2 161941Z 06012KT 27/20 A2988 RMK A01 T02650200  RH  067%=      5-min Rain = 0
KST2 161942Z 06013KT 26/20 A2988 RMK A01 T02640199  RH  067%=      5-min Rain = 0
KST2 161943Z 07013KT 26/20 A2988 RMK A01 T02630198  RH  068%=      5-min Rain = 0
KST2 161944Z 06012KT 26/20 A2988 RMK A01 T02620198  RH  068%=      5-min Rain = 0
KST2 161945Z 07011KT 26/20 A2988 RMK A01 T02620198  RH  068%=      5-min Rain = 0
KST2 161946Z 07009KT 26/20 A2988 RMK A01 T02610198  RH  068%=      5-min Rain = 0
KST2 161947Z 06012KT 26/20 A2988 RMK A01 T02610199  RH  068%=      5-min Rain = 0
KST2 161948Z 06011KT 26/20 A2988 RMK A01 T02620199  RH  068%=      5-min Rain = 0
KST2 161949Z 05008KT 26/20 A2988 RMK A01 T02620199  RH  068%=      5-min Rain = 0
KST2 161950Z 05008KT 26/20 A2988 RMK A01 T02620200  RH  068%=      5-min Rain = 0
KST2 161951Z 06010KT 26/20 A2988 RMK A01 T02630200  RH  068%=      5-min Rain = 0
KST2 161952Z 07009KT 26/20 A2988 RMK A01 T02630199  RH  068%=      5-min Rain = 0
KST2 161953Z 06012KT 26/20 A2988 RMK A01 T02620200  RH  068%=      5-min Rain = 0
KST2 161954Z 04011KT 26/20 A2989 RMK A01 T02640201  RH  068%=      5-min Rain = 0
KST2 161955Z 05010KT 26/20 A2988 RMK A01 T02640201  RH  068%=      5-min Rain = 0
KST2 161956Z 05011KT 26/20 A2988 RMK A01 T02640201  RH  068%=      5-min Rain = 0
KST2 161957Z 05011KT 26/20 A2988 RMK A01 T02630200  RH  068%=      5-min Rain = 0
KST2 161958Z 05008KT 26/20 A2988 RMK A01 T02630200  RH  068%=      5-min Rain = 0
KST2 161959Z 04009KT 26/20 A2988 RMK A01 T02630200  RH  069%=      5-min Rain = 0
KST2 162000Z 05009KT 26/20 A2988 RMK A01 T02640201  RH  068%=      5-min Rain = 0
KST2 162001Z 06012KT 27/20 A2988 RMK A01 T02650201  RH  068%=      5-min Rain = 0
KST2 162002Z 06013KT 27/20 A2988 RMK A01 T02660201  RH  067%=      5-min Rain = 0
KST2 162003Z 07012KT 27/20 A2988 RMK A01 T02650200  RH  067%=      5-min Rain = 0
KST2 162004Z 05013KT 27/20 A2988 RMK A01 T02650201  RH  068%=      5-min Rain = 0
KST2 162005Z 03010KT 27/20 A2988 RMK A01 T02660200  RH  067%=      5-min Rain = 0
KST2 162006Z 05009KT 27/20 A2988 RMK A01 T02660202  RH  068%=      5-min Rain = 0
KST2 162007Z 05012KT 27/20 A2988 RMK A01 T02670202  RH  068%=      5-min Rain = 0
KST2 162008Z 05010KT 27/20 A2988 RMK A01 T02670201  RH  067%=      5-min Rain = 0
KST2 162009Z 05011KT 27/20 A2988 RMK A01 T02660200  RH  067%=      5-min Rain = 0
KST2 162010Z 05012KT 27/20 A2988 RMK A01 T02650200  RH  067%=      5-min Rain = 0
KST2 162011Z 05010KT 27/20 A2988 RMK A01 T02650200  RH  067%=      5-min Rain = 0
KST2 162012Z 04009G14KT 27/20 A2988 RMK A01 T02650201  RH  068%=      5-min Rain = 0
KST2 162013Z 04011KT 27/20 A2988 RMK A01 T02670203  RH  068%=      5-min Rain = 0
KST2 162014Z 05012KT 27/20 A2988 RMK A01 T02690203  RH  067%=      5-min Rain = 0
KST2 162015Z 06011KT 27/20 A2988 RMK A01 T02690202  RH  067%=      5-min Rain = 0
KST2 162016Z 04011KT 27/20 A2988 RMK A01 T02690204  RH  067%=      5-min Rain = 0
KST2 162017Z 05011KT 27/20 A2988 RMK A01 T02710203  RH  067%=      5-min Rain = 0
KST2 162018Z 05009KT 27/20 A2988 RMK A01 T02710203  RH  066%=      5-min Rain = 0
KST2 162019Z 04011KT 27/20 A2988 RMK A01 T02700202  RH  066%=      5-min Rain = 0
KST2 162020Z 06010KT 27/20 A2987 RMK A01 T02700202  RH  066%=      5-min Rain = 0
KST2 162021Z 05012KT 27/20 A2987 RMK A01 T02700202  RH  067%=      5-min Rain = 0
KST2 162022Z 05011KT 27/20 A2987 RMK A01 T02710203  RH  066%=      5-min Rain = 0
KST2 162023Z 05008KT 27/20 A2987 RMK A01 T02720202  RH  066%=      5-min Rain = 0
KST2 162024Z 04012KT 27/20 A2987 RMK A01 T02710203  RH  066%=      5-min Rain = 0
KST2 162025Z 06011KT 27/20 A2987 RMK A01 T02720203  RH  066%=      5-min Rain = 0
KST2 162026Z 06012KT 27/20 A2987 RMK A01 T02720203  RH  066%=      5-min Rain = 0
KST2 162027Z 06012KT 27/20 A2987 RMK A01 T02720203  RH  066%=      5-min Rain = 0
KST2 162028Z 04010KT 27/20 A2987 RMK A01 T02730203  RH  066%=      5-min Rain = 0
KST2 162029Z 05012KT 27/20 A2987 RMK A01 T02740204  RH  066%=      5-min Rain = 0
KST2 162030Z 05010KT 28/20 A2987 RMK A01 T02750204  RH  065%=      5-min Rain = 0
KST2 162031Z 06012KT 28/20 A2987 RMK A01 T02750204  RH  065%=      5-min Rain = 0
KST2 162032Z 07012KT 27/20 A2987 RMK A01 T02740203  RH  065%=      5-min Rain = 0
KST2 162033Z 05014KT 27/20 A2987 RMK A01 T02740202  RH  065%=      5-min Rain = 0
KST2 162034Z 05011G16KT 27/20 A2987 RMK A01 T02740201  RH  065%=      5-min Rain = 0
KST2 162035Z 05015KT 27/20 A2987 RMK A01 T02720201  RH  065%=      5-min Rain = 0
KST2 162036Z 06012KT 27/20 A2987 RMK A01 T02720201  RH  065%=      5-min Rain = 0
KST2 162037Z 07011G16KT 27/20 A2987 RMK A01 T02730202  RH  065%=      5-min Rain = 0
KST2 162038Z 05013KT 27/20 A2987 RMK A01 T02730202  RH  065%=      5-min Rain = 0
KST2 162039Z 06013KT 27/20 A2987 RMK A01 T02740202  RH  065%=      5-min Rain = 0
KST2 162040Z 06013KT 27/20 A2987 RMK A01 T02740202  RH  065%=      5-min Rain = 0
KST2 162041Z 07015KT 27/20 A2987 RMK A01 T02730200  RH  064%=      5-min Rain = 0
KST2 162042Z 07012KT 27/20 A2987 RMK A01 T02710199  RH  065%=      5-min Rain = 0
KST2 162043Z 06012KT 27/20 A2987 RMK A01 T02700199  RH  065%=      5-min Rain = 0
KST2 162044Z 07012G17KT 27/20 A2987 RMK A01 T02710201  RH  065%=      5-min Rain = 0
KST2 162045Z 08012KT 27/20 A2987 RMK A01 T02740201  RH  065%=      5-min Rain = 0
KST2 162046Z 08012KT 28/20 A2987 RMK A01 T02750202  RH  064%=      5-min Rain = 0
KST2 162047Z 08012KT 28/20 A2987 RMK A01 T02750201  RH  064%=      5-min Rain = 0
KST2 162048Z 07012KT 28/20 A2987 RMK A01 T02750202  RH  064%=      5-min Rain = 0
KST2 162049Z 05012KT 28/20 A2987 RMK A01 T02750202  RH  065%=      5-min Rain = 0
KST2 162050Z 05012KT 28/20 A2987 RMK A01 T02750201  RH  064%=      5-min Rain = 0
KST2 162051Z 06013KT 28/20 A2987 RMK A01 T02750201  RH  064%=      5-min Rain = 0
KST2 162052Z 06011KT 28/20 A2987 RMK A01 T02750201  RH  064%=      5-min Rain = 0
KST2 162053Z 06008KT 27/20 A2987 RMK A01 T02740200  RH  064%=      5-min Rain = 0
KST2 162054Z 08011KT 27/20 A2987 RMK A01 T02740200  RH  064%=      5-min Rain = 0
KST2 162055Z 08010KT 27/20 A2987 RMK A01 T02730200  RH  064%=      5-min Rain = 0
KST2 162056Z 07012KT 27/20 A2987 RMK A01 T02740200  RH  064%=      5-min Rain = 0
KST2 162057Z 07013KT 27/20 A2987 RMK A01 T02740201  RH  064%=      5-min Rain = 0
KST2 162058Z 06012KT 28/20 A2987 RMK A01 T02750200  RH  064%=      5-min Rain = 0
KST2 162059Z 07009KT 28/20 A2987 RMK A01 T02750200  RH  064%=      5-min Rain = 0
KST2 162100Z 08010KT 28/20 A2987 RMK A01 T02750201  RH  064%=      5-min Rain = 0
KST2 162101Z 08011KT 28/20 A2987 RMK A01 T02760200  RH  063%=      5-min Rain = 0
KST2 162102Z 08011KT 28/20 A2987 RMK A01 T02760201  RH  064%=      5-min Rain = 0
KST2 162103Z 06011KT 28/20 A2987 RMK A01 T02750200  RH  064%=      5-min Rain = 0
KST2 162104Z 06010KT 27/20 A2987 RMK A01 T02740200  RH  064%=      5-min Rain = 0
KST2 162105Z 07007KT 27/20 A2987 RMK A01 T02730200  RH  064%=      5-min Rain = 0
KST2 162106Z 08010G16KT 28/20 A2987 RMK A01 T02760201  RH  064%=      5-min Rain = 0
KST2 162107Z 07015KT 28/20 A2987 RMK A01 T02770201  RH  063%=      5-min Rain = 0
KST2 162108Z 07014KT 28/20 A2987 RMK A01 T02760200  RH  063%=      5-min Rain = 0
KST2 162109Z 07012KT 27/20 A2987 RMK A01 T02740199  RH  063%=      5-min Rain = 0
KST2 162110Z 07010KT 27/20 A2987 RMK A01 T02720197  RH  064%=      5-min Rain = 0
KST2 162111Z 07008KT 27/20 A2987 RMK A01 T02710197  RH  064%=      5-min Rain = 0
KST2 162112Z 09009KT 27/20 A2987 RMK A01 T02710198  RH  064%=      5-min Rain = 0
KST2 162113Z 07009KT 27/20 A2987 RMK A01 T02730199  RH  064%=      5-min Rain = 0
KST2 162114Z 07014KT 27/20 A2987 RMK A01 T02740200  RH  064%=      5-min Rain = 0
KST2 162115Z 08011KT 28/20 A2987 RMK A01 T02750200  RH  064%=      5-min Rain = 0
KST2 162116Z 08011KT 28/20 A2987 RMK A01 T02750201  RH  064%=      5-min Rain = 0
KST2 162117Z 09012KT 28/20 A2987 RMK A01 T02750200  RH  063%=      5-min Rain = 0
KST2 162118Z 08013KT 27/20 A2987 RMK A01 T02740199  RH  063%=      5-min Rain = 0
KST2 162119Z 06012KT 27/20 A2987 RMK A01 T02740199  RH  064%=      5-min Rain = 0
KST2 162120Z 06009KT 27/20 A2987 RMK A01 T02730199  RH  064%=      5-min Rain = 0
KST2 162121Z 05008KT 27/20 A2987 RMK A01 T02730199  RH  064%=      5-min Rain = 0
KST2 162122Z 06010KT 27/20 A2987 RMK A01 T02730199  RH  064%=      5-min Rain = 0
KST2 162123Z 05010KT 27/20 A2986 RMK A01 T02740200  RH  064%=      5-min Rain = 0
KST2 162124Z 04008KT 27/20 A2986 RMK A01 T02740200  RH  064%=      5-min Rain = 0
KST2 162125Z 06009KT 27/20 A2986 RMK A01 T02730199  RH  064%=      5-min Rain = 0
KST2 162126Z 07010KT 27/20 A2986 RMK A01 T02720199  RH  064%=      5-min Rain = 0
KST2 162127Z 07010KT 27/20 A2986 RMK A01 T02710198  RH  064%=      5-min Rain = 0
KST2 162128Z 04008KT 27/20 A2986 RMK A01 T02700198  RH  065%=      5-min Rain = 0
KST2 162129Z 04008KT 27/20 A2986 RMK A01 T02700199  RH  065%=      5-min Rain = 0
KST2 162130Z 06008KT 27/20 A2986 RMK A01 T02710200  RH  065%=      5-min Rain = 0
KST2 162131Z 04010KT 27/20 A2986 RMK A01 T02730201  RH  065%=      5-min Rain = 0
KST2 162132Z 04009KT 27/20 A2986 RMK A01 T02730200  RH  064%=      5-min Rain = 0
KST2 162133Z 02011KT 27/20 A2986 RMK A01 T02720200  RH  064%=      5-min Rain = 0
KST2 162134Z 02008KT 27/20 A2985 RMK A01 T02720200  RH  065%=      5-min Rain = 0
KST2 162135Z 02007G12KT 27/20 A2985 RMK A01 T02720200  RH  065%=      5-min Rain = 0
KST2 162136Z 04010KT 27/20 A2985 RMK A01 T02720200  RH  065%=      5-min Rain = 0
KST2 162137Z 03010KT 27/20 A2985 RMK A01 T02720200  RH  065%=      5-min Rain = 0
KST2 162138Z 02010KT 27/20 A2985 RMK A01 T02720201  RH  065%=      5-min Rain = 0
KST2 162139Z 04009KT 27/20 A2985 RMK A01 T02730202  RH  065%=      5-min Rain = 0
KST2 162140Z 06010KT 27/20 A2985 RMK A01 T02740202  RH  065%=      5-min Rain = 0
KST2 162141Z 04010KT 28/20 A2985 RMK A01 T02750201  RH  064%=      5-min Rain = 0
KST2 162142Z 06009KT 27/20 A2985 RMK A01 T02740202  RH  065%=      5-min Rain = 0
KST2 162143Z 07011KT 28/20 A2985 RMK A01 T02750203  RH  064%=      5-min Rain = 0
KST2 162144Z 06010KT 28/20 A2985 RMK A01 T02760202  RH  064%=      5-min Rain = 0
KST2 162145Z 06010KT 28/20 A2985 RMK A01 T02760202  RH  064%=      5-min Rain = 0
KST2 162146Z 06009KT 28/20 A2985 RMK A01 T02750201  RH  064%=      5-min Rain = 0
KST2 162147Z 06009KT 28/20 A2985 RMK A01 T02750202  RH  064%=      5-min Rain = 0
KST2 162148Z 04009KT 28/20 A2985 RMK A01 T02770202  RH  064%=      5-min Rain = 0
KST2 162149Z 04009KT 28/20 A2985 RMK A01 T02770202  RH  064%=      5-min Rain = 0
KST2 162150Z 03009KT 28/20 A2985 RMK A01 T02770202  RH  064%=      5-min Rain = 0
KST2 162151Z 04012KT 28/20 A2985 RMK A01 T02770203  RH  064%=      5-min Rain = 0
KST2 162152Z 04010KT 28/20 A2985 RMK A01 T02780203  RH  064%=      5-min Rain = 0
KST2 162153Z 02010KT 28/20 A2985 RMK A01 T02780203  RH  064%=      5-min Rain = 0
KST2 162154Z 02011KT 28/20 A2985 RMK A01 T02770203  RH  064%=      5-min Rain = 0
KST2 162155Z 02009KT 28/20 A2985 RMK A01 T02770203  RH  064%=      5-min Rain = 0
KST2 162156Z 04009KT 28/20 A2985 RMK A01 T02770203  RH  064%=      5-min Rain = 0
KST2 162157Z 06009KT 28/20 A2985 RMK A01 T02770202  RH  064%=      5-min Rain = 0
KST2 162158Z 05009KT 28/20 A2985 RMK A01 T02770201  RH  064%=      5-min Rain = 0
KST2 162159Z 05010KT 28/20 A2985 RMK A01 T02760202  RH  064%=      5-min Rain = 0
KST2 162200Z 05014KT 28/20 A2985 RMK A01 T02760201  RH  064%=      5-min Rain = 0
KST2 162201Z 04011KT 28/20 A2985 RMK A01 T02770202  RH  064%=      5-min Rain = 0
KST2 162202Z 04010KT 28/20 A2985 RMK A01 T02770202  RH  064%=      5-min Rain = 0
KST2 162203Z 04010KT 28/20 A2985 RMK A01 T02780203  RH  063%=      5-min Rain = 0
KST2 162204Z 02010KT 28/20 A2985 RMK A01 T02790203  RH  063%=      5-min Rain = 0
KST2 162205Z 05009KT 28/20 A2985 RMK A01 T02800203  RH  063%=      5-min Rain = 0
KST2 162206Z 05007KT 28/20 A2985 RMK A01 T02800203  RH  063%=      5-min Rain = 0
KST2 162207Z 04006KT 28/20 A2985 RMK A01 T02800203  RH  063%=      5-min Rain = 0
KST2 162208Z 03010KT 28/20 A2985 RMK A01 T02800203  RH  063%=      5-min Rain = 0
KST2 162209Z 03011KT 28/20 A2985 RMK A01 T02810204  RH  063%=      5-min Rain = 0
KST2 162210Z 04010KT 28/20 A2985 RMK A01 T02810204  RH  063%=      5-min Rain = 0
KST2 162211Z 04009KT 28/20 A2985 RMK A01 T02810203  RH  062%=      5-min Rain = 0
KST2 162212Z 04007G13KT 28/20 A2985 RMK A01 T02810204  RH  063%=      5-min Rain = 0
KST2 162213Z 06010KT 28/20 A2985 RMK A01 T02830204  RH  062%=      5-min Rain = 0
KST2 162214Z 07009KT 28/20 A2985 RMK A01 T02830204  RH  062%=      5-min Rain = 0
KST2 162215Z 06007KT 28/20 A2985 RMK A01 T02830204  RH  062%=      5-min Rain = 0
KST2 162216Z 06008KT 28/20 A2985 RMK A01 T02830204  RH  062%=      5-min Rain = 0
KST2 162217Z 05010KT 28/21 A2985 RMK A01 T02840205  RH  062%=      5-min Rain = 0
KST2 162218Z 05009KT 29/21 A2985 RMK A01 T02850206  RH  062%=      5-min Rain = 0
KST2 162219Z 04008KT 29/21 A2985 RMK A01 T02860206  RH  062%=      5-min Rain = 0
KST2 162220Z 04011KT 29/21 A2985 RMK A01 T02860206  RH  062%=      5-min Rain = 0
KST2 162221Z 03009KT 29/21 A2985 RMK A01 T02860206  RH  062%=      5-min Rain = 0
KST2 162222Z 03008KT 29/21 A2985 RMK A01 T02850205  RH  062%=      5-min Rain = 0
KST2 162223Z 03010KT 28/21 A2985 RMK A01 T02840205  RH  062%=      5-min Rain = 0
KST2 162224Z 03009KT 28/20 A2985 RMK A01 T02830203  RH  062%=      5-min Rain = 0
KST2 162225Z 04008KT 28/20 A2985 RMK A01 T02820203  RH  062%=      5-min Rain = 0
KST2 162226Z 04009KT 28/20 A2985 RMK A01 T02820204  RH  063%=      5-min Rain = 0
KST2 162227Z 04008KT 28/21 A2985 RMK A01 T02840205  RH  062%=      5-min Rain = 0
KST2 162228Z 05006KT 29/20 A2985 RMK A01 T02850204  RH  062%=      5-min Rain = 0
KST2 162229Z 04007KT 28/20 A2985 RMK A01 T02840204  RH  062%=      5-min Rain = 0
KST2 162230Z 06011KT 28/20 A2985 RMK A01 T02840204  RH  062%=      5-min Rain = 0
KST2 162231Z 07011KT 28/20 A2985 RMK A01 T02840204  RH  062%=      5-min Rain = 0
KST2 162232Z 06009KT 29/20 A2985 RMK A01 T02850203  RH  061%=      5-min Rain = 0
KST2 162233Z 06009KT 29/20 A2985 RMK A01 T02850204  RH  061%=      5-min Rain = 0
KST2 162234Z 07010KT 29/20 A2985 RMK A01 T02850204  RH  061%=      5-min Rain = 0
KST2 162235Z 05009KT 28/20 A2985 RMK A01 T02840203  RH  061%=      5-min Rain = 0
KST2 162236Z 06012KT 28/20 A2985 RMK A01 T02840204  RH  062%=      5-min Rain = 0
KST2 162237Z 07010KT 28/20 A2985 RMK A01 T02840203  RH  061%=      5-min Rain = 0
KST2 162238Z 08008KT 28/20 A2985 RMK A01 T02830203  RH  062%=      5-min Rain = 0
KST2 162239Z 08005KT 28/20 A2985 RMK A01 T02830202  RH  062%=      5-min Rain = 0
KST2 162240Z 06009KT 28/20 A2985 RMK A01 T02830203  RH  062%=      5-min Rain = 0
KST2 162241Z 04012KT 29/20 A2985 RMK A01 T02850204  RH  062%=      5-min Rain = 0
KST2 162242Z 04012KT 29/21 A2985 RMK A01 T02850205  RH  062%=      5-min Rain = 0
KST2 162243Z 04009KT 29/20 A2985 RMK A01 T02850204  RH  062%=      5-min Rain = 0
KST2 162244Z 04007KT 28/20 A2985 RMK A01 T02840203  RH  062%=      5-min Rain = 0
KST2 162245Z 05007KT 28/20 A2985 RMK A01 T02840204  RH  062%=      5-min Rain = 0
KST2 162246Z 04009KT 28/20 A2985 RMK A01 T02840204  RH  062%=      5-min Rain = 0
KST2 162247Z 05009KT 28/20 A2985 RMK A01 T02840204  RH  062%=      5-min Rain = 0
KST2 162248Z 04009KT 29/21 A2985 RMK A01 T02850206  RH  062%=      5-min Rain = 0
KST2 162249Z 05007KT 29/21 A2985 RMK A01 T02860205  RH  062%=      5-min Rain = 0
KST2 162250Z 05008KT 29/21 A2985 RMK A01 T02860206  RH  062%=      5-min Rain = 0
KST2 162251Z 05010KT 29/21 A2985 RMK A01 T02860206  RH  062%=      5-min Rain = 0
KST2 162252Z 04009KT 29/21 A2985 RMK A01 T02860205  RH  061%=      5-min Rain = 0
KST2 162253Z 06007KT 29/21 A2985 RMK A01 T02860205  RH  061%=      5-min Rain = 0
KST2 162254Z 08009KT 29/21 A2985 RMK A01 T02860205  RH  061%=      5-min Rain = 0
KST2 162255Z 06010KT 29/21 A2985 RMK A01 T02860205  RH  062%=      5-min Rain = 0
KST2 162256Z 05012KT 29/21 A2985 RMK A01 T02860206  RH  062%=      5-min Rain = 0
KST2 162257Z 04009KT 29/21 A2985 RMK A01 T02870206  RH  061%=      5-min Rain = 0
KST2 162258Z 05007KT 29/21 A2985 RMK A01 T02870205  RH  061%=      5-min Rain = 0
KST2 162259Z 07007KT 29/20 A2985 RMK A01 T02850204  RH  062%=      5-min Rain = 0
KST2 162300Z 06008KT 28/20 A2985 RMK A01 T02840204  RH  062%=      5-min Rain = 0
KST2 162301Z 08009KT 29/21 A2985 RMK A01 T02850205  RH  062%=      5-min Rain = 0
KST2 162302Z 08010KT 29/20 A2985 RMK A01 T02860204  RH  062%=      5-min Rain = 0
KST2 162303Z 07009KT 29/21 A2985 RMK A01 T02860206  RH  062%=      5-min Rain = 0
KST2 162304Z 06009KT 29/21 A2985 RMK A01 T02870207  RH  062%=      5-min Rain = 0
KST2 162305Z 06010KT 29/21 A2985 RMK A01 T02880207  RH  062%=      5-min Rain = 0
KST2 162306Z 05010KT 29/21 A2985 RMK A01 T02870205  RH  061%=      5-min Rain = 0
KST2 162307Z 05007KT 29/20 A2985 RMK A01 T02850204  RH  062%=      5-min Rain = 0
KST2 162308Z 06007KT 28/20 A2985 RMK A01 T02830203  RH  062%=      5-min Rain = 0
KST2 162309Z 04008KT 28/20 A2985 RMK A01 T02820202  RH  062%=      5-min Rain = 0
KST2 162310Z 06009KT 28/20 A2985 RMK A01 T02800202  RH  063%=      5-min Rain = 0
KST2 162311Z 07008KT 28/20 A2984 RMK A01 T02810204  RH  063%=      5-min Rain = 0
KST2 162312Z 06011KT 28/21 A2984 RMK A01 T02820205  RH  063%=      5-min Rain = 0
KST2 162313Z 06010KT 28/21 A2984 RMK A01 T02840206  RH  063%=      5-min Rain = 0
KST2 162314Z 07009KT 29/21 A2984 RMK A01 T02850206  RH  063%=      5-min Rain = 0
KST2 162315Z 07006KT 29/21 A2984 RMK A01 T02850207  RH  062%=      5-min Rain = 0
KST2 162316Z 08008KT 29/21 A2984 RMK A01 T02850207  RH  062%=      5-min Rain = 0
KST2 162317Z 09008KT 29/21 A2984 RMK A01 T02850206  RH  062%=      5-min Rain = 0
KST2 162318Z 08009KT 29/21 A2984 RMK A01 T02850206  RH  062%=      5-min Rain = 0
KST2 162319Z 07011KT 29/21 A2984 RMK A01 T02850206  RH  062%=      5-min Rain = 0
KST2 162320Z 08010KT 28/21 A2984 RMK A01 T02840206  RH  063%=      5-min Rain = 0
KST2 162321Z 10006KT 28/21 A2984 RMK A01 T02830206  RH  063%=      5-min Rain = 0
KST2 162322Z 08005KT 28/21 A2984 RMK A01 T02830207  RH  063%=      5-min Rain = 0
KST2 162323Z 08007KT 28/21 A2984 RMK A01 T02840207  RH  063%=      5-min Rain = 0
KST2 162324Z 05009KT 29/21 A2984 RMK A01 T02850208  RH  063%=      5-min Rain = 0
KST2 162325Z 07008KT 29/21 A2984 RMK A01 T02860208  RH  063%=      5-min Rain = 0
KST2 162326Z 07011KT 29/21 A2984 RMK A01 T02860208  RH  063%=      5-min Rain = 0
KST2 162327Z 06007KT 29/21 A2984 RMK A01 T02850207  RH  062%=      5-min Rain = 0
KST2 162328Z 07008KT 28/21 A2984 RMK A01 T02840206  RH  063%=      5-min Rain = 0
KST2 162329Z 06006KT 28/21 A2984 RMK A01 T02830206  RH  063%=      5-min Rain = 0
KST2 162330Z 08009KT 28/21 A2984 RMK A01 T02830206  RH  063%=      5-min Rain = 0
KST2 162331Z 06009KT 28/21 A2984 RMK A01 T02830206  RH  063%=      5-min Rain = 0
KST2 162332Z 07008KT 28/21 A2984 RMK A01 T02830206  RH  063%=      5-min Rain = 0
KST2 162333Z 07006KT 28/21 A2984 RMK A01 T02820205  RH  063%=      5-min Rain = 0
KST2 162334Z 07006KT 28/21 A2984 RMK A01 T02810206  RH  064%=      5-min Rain = 0
KST2 162335Z 06008KT 28/21 A2984 RMK A01 T02820206  RH  063%=      5-min Rain = 0
KST2 162336Z 06008KT 28/21 A2984 RMK A01 T02820206  RH  063%=      5-min Rain = 0
KST2 162337Z 06008KT 28/21 A2984 RMK A01 T02820206  RH  063%=      5-min Rain = 0
KST2 162338Z 05007KT 28/21 A2984 RMK A01 T02820207  RH  063%=      5-min Rain = 0
KST2 162339Z 08007KT 28/21 A2984 RMK A01 T02830207  RH  063%=      5-min Rain = 0
KST2 162340Z 09006KT 28/21 A2984 RMK A01 T02830207  RH  063%=      5-min Rain = 0
KST2 162341Z 08005KT 28/21 A2984 RMK A01 T02830206  RH  063%=      5-min Rain = 0
KST2 162342Z 06005KT 28/21 A2984 RMK A01 T02820207  RH  064%=      5-min Rain = 0
KST2 162343Z 07008KT 28/21 A2984 RMK A01 T02810206  RH  064%=      5-min Rain = 0
KST2 162344Z 07006KT 28/21 A2984 RMK A01 T02810206  RH  064%=      5-min Rain = 0
KST2 162345Z 08007KT 28/21 A2984 RMK A01 T02820207  RH  064%=      5-min Rain = 0
KST2 162346Z 07006KT 28/21 A2984 RMK A01 T02810206  RH  064%=      5-min Rain = 0
KST2 162347Z 07006KT 28/21 A2984 RMK A01 T02820207  RH  064%=      5-min Rain = 0
KST2 162348Z 06007KT 28/21 A2984 RMK A01 T02810207  RH  064%=      5-min Rain = 0
KST2 162349Z 07009KT 28/21 A2984 RMK A01 T02820206  RH  064%=      5-min Rain = 0
KST2 162350Z 09007KT 28/21 A2984 RMK A01 T02810206  RH  064%=      5-min Rain = 0
KST2 162351Z 08007KT 28/21 A2984 RMK A01 T02800205  RH  064%=      5-min Rain = 0
KST2 162352Z 05009KT 28/21 A2984 RMK A01 T02790205  RH  064%=      5-min Rain = 0
KST2 162353Z 07007KT 28/21 A2984 RMK A01 T02790205  RH  064%=      5-min Rain = 0
KST2 162354Z 05006KT 28/21 A2984 RMK A01 T02790205  RH  064%=      5-min Rain = 0
KST2 162355Z 04007KT 28/21 A2984 RMK A01 T02800206  RH  064%=      5-min Rain = 0
KST2 162356Z 03006KT 28/21 A2984 RMK A01 T02800206  RH  064%=      5-min Rain = 0
KST2 162357Z 05005KT 28/21 A2984 RMK A01 T02800206  RH  064%=      5-min Rain = 0
KST2 162358Z 06005KT 28/21 A2984 RMK A01 T02800207  RH  064%=      5-min Rain = 0
KST2 162359Z 09005KT 28/21 A2984 RMK A01 T02810206  RH  064%=      5-min Rain = 0
KST2 170000Z 09005KT 28/21 A2984 RMK A01 T02800206  RH  064%=      5-min Rain = 0
KST2 170001Z 08008KT 28/21 A2985 RMK A01 T02800206  RH  064%=      5-min Rain = 0
KST2 170002Z 08009KT 28/21 A2985 RMK A01 T02800206  RH  064%=      5-min Rain = 0
KST2 170003Z 07008KT 28/21 A2985 RMK A01 T02810206  RH  064%=      5-min Rain = 0
KST2 170004Z 07007KT 28/21 A2985 RMK A01 T02810206  RH  064%=      5-min Rain = 0
KST2 170005Z 09007KT 28/21 A2985 RMK A01 T02810205  RH  064%=      5-min Rain = 0
KST2 170006Z 10009KT 28/21 A2985 RMK A01 T02800205  RH  064%=      5-min Rain = 0
KST2 170007Z 06009KT 28/21 A2985 RMK A01 T02800205  RH  064%=      5-min Rain = 0
KST2 170008Z 05009KT 28/21 A2985 RMK A01 T02810206  RH  064%=      5-min Rain = 0
KST2 170009Z 04007KT 28/21 A2985 RMK A01 T02810206  RH  064%=      5-min Rain = 0
KST2 170010Z 06006KT 28/21 A2985 RMK A01 T02800205  RH  064%=      5-min Rain = 0
KST2 170011Z 06007KT 28/21 A2985 RMK A01 T02790205  RH  064%=      5-min Rain = 0
KST2 170012Z 07008KT 28/21 A2985 RMK A01 T02790205  RH  064%=      5-min Rain = 0
KST2 170013Z 08010KT 28/21 A2985 RMK A01 T02790205  RH  064%=      5-min Rain = 0
KST2 170014Z 06010KT 28/20 A2985 RMK A01 T02790204  RH  064%=      5-min Rain = 0
KST2 170015Z 06009KT 28/21 A2985 RMK A01 T02790205  RH  064%=      5-min Rain = 0
KST2 170016Z 08008KT 28/20 A2985 RMK A01 T02780204  RH  064%=      5-min Rain = 0
KST2 170017Z 07009KT 28/20 A2985 RMK A01 T02780204  RH  064%=      5-min Rain = 0
KST2 170018Z 09009KT 28/20 A2985 RMK A01 T02780203  RH  064%=      5-min Rain = 0
KST2 170019Z 07009KT 28/20 A2985 RMK A01 T02780204  RH  064%=      5-min Rain = 0
KST2 170020Z 08008KT 28/20 A2985 RMK A01 T02780204  RH  064%=      5-min Rain = 0
KST2 170021Z 06009KT 28/20 A2985 RMK A01 T02780204  RH  064%=      5-min Rain = 0
KST2 170022Z 07008KT 28/21 A2985 RMK A01 T02790205  RH  064%=      5-min Rain = 0
KST2 170023Z 09010KT 28/20 A2985 RMK A01 T02780204  RH  064%=      5-min Rain = 0
KST2 170024Z 09008KT 28/20 A2985 RMK A01 T02770203  RH  064%=      5-min Rain = 0
KST2 170025Z 08005KT 28/20 A2985 RMK A01 T02770203  RH  064%=      5-min Rain = 0
KST2 170026Z 08004KT 28/20 A2985 RMK A01 T02760203  RH  064%=      5-min Rain = 0
KST2 170027Z 08007KT 28/20 A2985 RMK A01 T02760203  RH  064%=      5-min Rain = 0
KST2 170028Z 07008KT 28/20 A2985 RMK A01 T02760202  RH  064%=      5-min Rain = 0
KST2 170029Z 06007KT 28/20 A2985 RMK A01 T02760202  RH  064%=      5-min Rain = 0
KST2 170030Z 06007KT 28/20 A2985 RMK A01 T02760202  RH  064%=      5-min Rain = 0
KST2 170031Z 06009KT 28/20 A2985 RMK A01 T02760203  RH  064%=      5-min Rain = 0
KST2 170032Z 06009KT 28/20 A2985 RMK A01 T02760202  RH  064%=      5-min Rain = 0
KST2 170033Z 06009KT 28/20 A2985 RMK A01 T02760202  RH  064%=      5-min Rain = 0
KST2 170034Z 06008KT 28/20 A2985 RMK A01 T02760203  RH  064%=      5-min Rain = 0
KST2 170035Z 07006KT 28/20 A2985 RMK A01 T02760202  RH  064%=      5-min Rain = 0
KST2 170036Z 09007KT 28/20 A2985 RMK A01 T02760203  RH  064%=      5-min Rain = 0
KST2 170037Z 08009KT 28/20 A2985 RMK A01 T02760203  RH  064%=      5-min Rain = 0
KST2 170038Z 08009KT 28/20 A2985 RMK A01 T02770203  RH  064%=      5-min Rain = 0
KST2 170039Z 07006KT 28/20 A2985 RMK A01 T02770203  RH  064%=      5-min Rain = 0
KST2 170040Z 07005KT 28/20 A2985 RMK A01 T02760203  RH  064%=      5-min Rain = 0
KST2 170041Z 07006KT 28/20 A2985 RMK A01 T02760203  RH  064%=      5-min Rain = 0
KST2 170042Z 06008KT 28/20 A2985 RMK A01 T02760203  RH  064%=      5-min Rain = 0
KST2 170043Z 06007KT 28/20 A2985 RMK A01 T02760203  RH  064%=      5-min Rain = 0
KST2 170044Z 08007KT 28/20 A2985 RMK A01 T02750202  RH  064%=      5-min Rain = 0
KST2 170045Z 06008KT 28/20 A2985 RMK A01 T02750203  RH  065%=      5-min Rain = 0
KST2 170046Z 07008KT 28/20 A2985 RMK A01 T02750202  RH  064%=      5-min Rain = 0
KST2 170047Z 09006KT 28/20 A2985 RMK A01 T02750202  RH  064%=      5-min Rain = 0
KST2 170048Z 07005KT 27/20 A2985 RMK A01 T02740201  RH  064%=      5-min Rain = 0
KST2 170049Z 07005KT 27/20 A2985 RMK A01 T02740202  RH  065%=      5-min Rain = 0
KST2 170050Z 05005KT 27/20 A2985 RMK A01 T02740202  RH  065%=      5-min Rain = 0
KST2 170051Z 05005KT 27/20 A2985 RMK A01 T02740202  RH  065%=      5-min Rain = 0
KST2 170052Z 07007KT 27/20 A2985 RMK A01 T02740202  RH  065%=      5-min Rain = 0
KST2 170053Z 07006KT 28/20 A2985 RMK A01 T02750202  RH  065%=      5-min Rain = 0
KST2 170054Z 08007KT 27/20 A2985 RMK A01 T02740202  RH  065%=      5-min Rain = 0
KST2 170055Z 08007KT 27/20 A2985 RMK A01 T02740202  RH  065%=      5-min Rain = 0
KST2 170056Z 06006KT 27/20 A2985 RMK A01 T02740201  RH  064%=      5-min Rain = 0
KST2 170057Z 06007KT 27/20 A2985 RMK A01 T02730201  RH  065%=      5-min Rain = 0
KST2 170058Z 08008KT 27/20 A2985 RMK A01 T02740202  RH  065%=      5-min Rain = 0
KST2 170059Z 08007KT 27/20 A2985 RMK A01 T02730201  RH  065%=      5-min Rain = 0
KST2 170100Z 07009KT 27/20 A2985 RMK A01 T02730201  RH  065%=      5-min Rain = 0
KST2 170101Z 07007KT 27/20 A2985 RMK A01 T02720200  RH  065%=      5-min Rain = 0
KST2 170102Z 06008KT 27/20 A2985 RMK A01 T02730201  RH  065%=      5-min Rain = 0
KST2 170103Z 06010KT 27/20 A2985 RMK A01 T02730201  RH  065%=      5-min Rain = 0
KST2 170104Z 07008KT 27/20 A2985 RMK A01 T02720200  RH  065%=      5-min Rain = 0
KST2 170105Z 07007KT 27/20 A2985 RMK A01 T02720200  RH  065%=      5-min Rain = 0
KST2 170106Z 05008KT 27/20 A2985 RMK A01 T02720200  RH  065%=      5-min Rain = 0
KST2 170107Z 06008KT 27/20 A2985 RMK A01 T02720200  RH  065%=      5-min Rain = 0
KST2 170108Z 06007KT 27/20 A2985 RMK A01 T02720200  RH  065%=      5-min Rain = 0
KST2 170109Z 07008KT 27/20 A2985 RMK A01 T02710200  RH  065%=      5-min Rain = 0
KST2 170110Z 07008KT 27/20 A2985 RMK A01 T02710200  RH  065%=      5-min Rain = 0
KST2 170111Z 08007KT 27/20 A2985 RMK A01 T02710200  RH  065%=      5-min Rain = 0
KST2 170112Z 07007KT 27/20 A2985 RMK A01 T02710200  RH  065%=      5-min Rain = 0
KST2 170113Z 06007KT 27/20 A2985 RMK A01 T02710200  RH  065%=      5-min Rain = 0
KST2 170114Z 06005KT 27/20 A2985 RMK A01 T02710200  RH  065%=      5-min Rain = 0
KST2 170115Z 06006KT 27/20 A2985 RMK A01 T02710200  RH  065%=      5-min Rain = 0
KST2 170116Z 07007KT 27/20 A2985 RMK A01 T02710200  RH  065%=      5-min Rain = 0
KST2 170117Z 07006KT 27/20 A2985 RMK A01 T02710200  RH  065%=      5-min Rain = 0
KST2 170118Z 08007KT 27/20 A2985 RMK A01 T02710200  RH  065%=      5-min Rain = 0
KST2 170119Z 07006KT 27/20 A2985 RMK A01 T02700200  RH  065%=      5-min Rain = 0
KST2 170120Z 07008KT 27/20 A2985 RMK A01 T02700200  RH  065%=      5-min Rain = 0
KST2 170121Z 06007KT 27/20 A2985 RMK A01 T02700200  RH  065%=      5-min Rain = 0
KST2 170122Z 06006KT 27/20 A2985 RMK A01 T02700200  RH  065%=      5-min Rain = 0
KST2 170123Z 06007KT 27/20 A2985 RMK A01 T02700200  RH  065%=      5-min Rain = 0
KST2 170124Z 06007KT 27/20 A2985 RMK A01 T02700200  RH  065%=      5-min Rain = 0
KST2 170125Z 04006KT 27/20 A2985 RMK A01 T02700200  RH  065%=      5-min Rain = 0
KST2 170126Z 05006KT 27/20 A2985 RMK A01 T02700200  RH  066%=      5-min Rain = 0
KST2 170127Z 06007KT 27/20 A2985 RMK A01 T02690200  RH  066%=      5-min Rain = 0
KST2 170128Z 06007KT 27/20 A2985 RMK A01 T02690199  RH  066%=      5-min Rain = 0
KST2 170129Z 06006KT 27/20 A2985 RMK A01 T02690200  RH  066%=      5-min Rain = 0
KST2 170130Z 06008KT 27/20 A2985 RMK A01 T02690199  RH  066%=      5-min Rain = 0
KST2 170131Z 05008KT 27/20 A2985 RMK A01 T02690199  RH  066%=      5-min Rain = 0
KST2 170132Z 06009KT 27/20 A2985 RMK A01 T02680199  RH  066%=      5-min Rain = 0
KST2 170133Z 06009KT 27/20 A2985 RMK A01 T02670198  RH  066%=      5-min Rain = 0
KST2 170134Z 06009KT 27/20 A2985 RMK A01 T02670198  RH  066%=      5-min Rain = 0
KST2 170135Z 07008KT 27/20 A2985 RMK A01 T02670198  RH  066%=      5-min Rain = 0
KST2 170136Z 06008KT 27/20 A2985 RMK A01 T02660198  RH  066%=      5-min Rain = 0
KST2 170137Z 06008KT 27/20 A2986 RMK A01 T02660198  RH  066%=      5-min Rain = 0
KST2 170138Z 06009KT 27/20 A2986 RMK A01 T02660198  RH  066%=      5-min Rain = 0
KST2 170139Z 06010KT 27/20 A2986 RMK A01 T02660198  RH  066%=      5-min Rain = 0
KST2 170140Z 06009KT 27/20 A2986 RMK A01 T02650197  RH  066%=      5-min Rain = 0
KST2 170141Z 06008KT 27/20 A2986 RMK A01 T02650197  RH  066%=      5-min Rain = 0
KST2 170142Z 06010KT 27/20 A2986 RMK A01 T02650197  RH  066%=      5-min Rain = 0
KST2 170143Z 06009KT 27/20 A2986 RMK A01 T02650196  RH  066%=      5-min Rain = 0
KST2 170144Z 06008KT 26/20 A2986 RMK A01 T02640196  RH  066%=      5-min Rain = 0
KST2 170145Z 06009KT 26/20 A2986 RMK A01 T02640196  RH  066%=      5-min Rain = 0
KST2 170146Z 06008KT 26/20 A2986 RMK A01 T02640196  RH  066%=      5-min Rain = 0
KST2 170147Z 06009KT 26/20 A2986 RMK A01 T02640196  RH  066%=      5-min Rain = 0
KST2 170148Z 07008KT 26/20 A2986 RMK A01 T02630196  RH  066%=      5-min Rain = 0
KST2 170149Z 06009KT 26/20 A2986 RMK A01 T02630196  RH  066%=      5-min Rain = 0
KST2 170150Z 06008KT 26/20 A2986 RMK A01 T02630196  RH  067%=      5-min Rain = 0
KST2 170151Z 06010KT 26/20 A2986 RMK A01 T02630196  RH  067%=      5-min Rain = 0
KST2 170152Z 06009KT 26/20 A2986 RMK A01 T02620196  RH  067%=      5-min Rain = 0
KST2 170153Z 06008KT 26/20 A2986 RMK A01 T02620195  RH  067%=      5-min Rain = 0
KST2 170154Z 06009KT 26/20 A2986 RMK A01 T02620195  RH  067%=      5-min Rain = 0
KST2 170155Z 06009KT 26/20 A2986 RMK A01 T02620195  RH  067%=      5-min Rain = 0
KST2 170156Z 05008KT 26/20 A2986 RMK A01 T02620196  RH  067%=      5-min Rain = 0
KST2 170157Z 06009KT 26/20 A2986 RMK A01 T02610195  RH  067%=      5-min Rain = 0
KST2 170158Z 06009KT 26/20 A2986 RMK A01 T02610196  RH  067%=      5-min Rain = 0
KST2 170159Z 06009KT 26/20 A2986 RMK A01 T02610196  RH  067%=      5-min Rain = 0
KST2 170200Z 06009KT 26/20 A2986 RMK A01 T02600195  RH  067%=      5-min Rain = 0
KST2 170201Z 06010KT 26/20 A2986 RMK A01 T02600196  RH  067%=      5-min Rain = 0
KST2 170202Z 06010KT 26/20 A2986 RMK A01 T02600195  RH  068%=      5-min Rain = 0
KST2 170203Z 06009KT 26/20 A2986 RMK A01 T02600196  RH  068%=      5-min Rain = 0
KST2 170204Z 06009KT 26/20 A2986 RMK A01 T02600195  RH  068%=      5-min Rain = 0
KST2 170205Z 06008KT 26/20 A2986 RMK A01 T02590196  RH  068%=      5-min Rain = 0
KST2 170206Z 07007KT 26/20 A2986 RMK A01 T02590196  RH  068%=      5-min Rain = 0
KST2 170207Z 07009KT 26/20 A2986 RMK A01 T02590196  RH  068%=      5-min Rain = 0
KST2 170208Z 07008KT 26/20 A2986 RMK A01 T02590196  RH  068%=      5-min Rain = 0
KST2 170209Z 07008KT 26/20 A2987 RMK A01 T02590196  RH  068%=      5-min Rain = 0
KST2 170210Z 07007KT 26/20 A2987 RMK A01 T02580196  RH  068%=      5-min Rain = 0
KST2 170211Z 07008KT 26/20 A2987 RMK A01 T02580196  RH  068%=      5-min Rain = 0
KST2 170212Z 07007KT 26/20 A2987 RMK A01 T02580196  RH  068%=      5-min Rain = 0
KST2 170213Z 07007KT 26/20 A2987 RMK A01 T02580196  RH  069%=      5-min Rain = 0
KST2 170214Z 07008KT 26/20 A2987 RMK A01 T02570196  RH  069%=      5-min Rain = 0
KST2 170215Z 07006KT 26/20 A2987 RMK A01 T02570196  RH  069%=      5-min Rain = 0
KST2 170216Z 07007KT 26/20 A2987 RMK A01 T02570196  RH  069%=      5-min Rain = 0
KST2 170217Z 07007KT 26/20 A2987 RMK A01 T02570196  RH  069%=      5-min Rain = 0
KST2 170218Z 07007KT 26/20 A2987 RMK A01 T02570196  RH  069%=      5-min Rain = 0
KST2 170219Z 07007KT 26/20 A2987 RMK A01 T02560196  RH  069%=      5-min Rain = 0
KST2 170220Z 07007KT 26/20 A2987 RMK A01 T02570196  RH  069%=      5-min Rain = 0
KST2 170221Z 07008KT 26/20 A2987 RMK A01 T02560196  RH  069%=      5-min Rain = 0
KST2 170222Z 07007KT 26/20 A2987 RMK A01 T02560196  RH  069%=      5-min Rain = 0
KST2 170223Z 08009KT 26/20 A2987 RMK A01 T02560196  RH  070%=      5-min Rain = 0
KST2 170224Z 07008KT 26/20 A2987 RMK A01 T02550196  RH  070%=      5-min Rain = 0
KST2 170225Z 07008KT 26/20 A2987 RMK A01 T02550196  RH  070%=      5-min Rain = 0
KST2 170226Z 08008KT 26/20 A2988 RMK A01 T02550196  RH  070%=      5-min Rain = 0
KST2 170227Z 08009KT 26/20 A2988 RMK A01 T02550196  RH  070%=      5-min Rain = 0
KST2 170228Z 08008KT 26/20 A2988 RMK A01 T02550196  RH  070%=      5-min Rain = 0
KST2 170229Z 08008KT 26/20 A2988 RMK A01 T02550196  RH  070%=      5-min Rain = 0
KST2 170230Z 08008KT 25/20 A2988 RMK A01 T02540195  RH  070%=      5-min Rain = 0
KST2 170231Z 08008KT 25/20 A2988 RMK A01 T02540196  RH  070%=      5-min Rain = 0
KST2 170232Z 08008KT 25/20 A2988 RMK A01 T02540196  RH  070%=      5-min Rain = 0
KST2 170233Z 08007KT 25/20 A2988 RMK A01 T02530196  RH  070%=      5-min Rain = 0
KST2 170234Z 08008KT 25/20 A2988 RMK A01 T02530195  RH  070%=      5-min Rain = 0
KST2 170235Z 08008KT 25/20 A2988 RMK A01 T02530195  RH  070%=      5-min Rain = 0
KST2 170236Z 08007KT 25/20 A2988 RMK A01 T02520195  RH  071%=      5-min Rain = 0
KST2 170237Z 08007KT 25/20 A2988 RMK A01 T02520195  RH  071%=      5-min Rain = 0
KST2 170238Z 08009KT 25/20 A2988 RMK A01 T02520195  RH  071%=      5-min Rain = 0
KST2 170239Z 08007KT 25/20 A2989 RMK A01 T02510195  RH  071%=      5-min Rain = 0
KST2 170240Z 08008KT 25/20 A2989 RMK A01 T02510195  RH  071%=      5-min Rain = 0
KST2 170241Z 08008KT 25/20 A2989 RMK A01 T02510195  RH  071%=      5-min Rain = 0
KST2 170242Z 08007KT 25/20 A2989 RMK A01 T02500195  RH  071%=      5-min Rain = 0
KST2 170243Z 08008KT 25/20 A2989 RMK A01 T02500195  RH  071%=      5-min Rain = 0
KST2 170244Z 08007KT 25/20 A2989 RMK A01 T02500195  RH  071%=      5-min Rain = 0
KST2 170245Z 08007KT 25/20 A2989 RMK A01 T02500195  RH  072%=      5-min Rain = 0
KST2 170246Z 08007KT 25/20 A2989 RMK A01 T02490195  RH  072%=      5-min Rain = 0
KST2 170247Z 08007KT 25/20 A2989 RMK A01 T02490195  RH  072%=      5-min Rain = 0
KST2 170248Z 09006KT 25/20 A2989 RMK A01 T02490195  RH  072%=      5-min Rain = 0
KST2 170249Z 09006KT 25/20 A2989 RMK A01 T02490195  RH  072%=      5-min Rain = 0
KST2 170250Z 09007KT 25/20 A2989 RMK A01 T02490195  RH  072%=      5-min Rain = 0
KST2 170251Z 09007KT 25/20 A299 RMK A01 T02480195  RH  072%=      5-min Rain = 0
KST2 170252Z 09006KT 25/20 A299 RMK A01 T02480195  RH  072%=      5-min Rain = 0
KST2 170253Z 08007KT 25/20 A299 RMK A01 T02480195  RH  072%=      5-min Rain = 0
KST2 170254Z 08007KT 25/20 A299 RMK A01 T02480195  RH  072%=      5-min Rain = 0
KST2 170255Z 08006KT 25/20 A299 RMK A01 T02480195  RH  072%=      5-min Rain = 0
KST2 170256Z 09006KT 25/20 A299 RMK A01 T02470195  RH  073%=      5-min Rain = 0
KST2 170257Z 08006KT 25/20 A299 RMK A01 T02470195  RH  073%=      5-min Rain = 0
KST2 170258Z 08006KT 25/20 A299 RMK A01 T02470195  RH  073%=      5-min Rain = 0
KST2 170259Z 08006KT 25/20 A299 RMK A01 T02470195  RH  073%=      5-min Rain = 0
KST2 170300Z 08006KT 25/20 A299 RMK A01 T02470195  RH  073%=      5-min Rain = 0
KST2 170301Z 09006KT 25/20 A299 RMK A01 T02470195  RH  073%=      5-min Rain = 0
KST2 170302Z 08006KT 25/20 A299 RMK A01 T02460195  RH  073%=      5-min Rain = 0
KST2 170303Z 08006KT 25/20 A299 RMK A01 T02460195  RH  073%=      5-min Rain = 0
KST2 170304Z 09006KT 25/20 A299 RMK A01 T02460195  RH  073%=      5-min Rain = 0
KST2 170305Z 08007KT 25/20 A299 RMK A01 T02460195  RH  073%=      5-min Rain = 0
KST2 170306Z 08006KT 25/20 A299 RMK A01 T02460195  RH  073%=      5-min Rain = 0
KST2 170307Z 08006KT 25/20 A299 RMK A01 T02460195  RH  073%=      5-min Rain = 0
KST2 170308Z 07005KT 25/20 A299 RMK A01 T02460195  RH  074%=      5-min Rain = 0
KST2 170309Z 07005KT 25/20 A299 RMK A01 T02460195  RH  074%=      5-min Rain = 0
KST2 170310Z 07006KT 25/20 A299 RMK A01 T02460195  RH  074%=      5-min Rain = 0
KST2 170311Z 07006KT 25/20 A299 RMK A01 T02450195  RH  074%=      5-min Rain = 0
KST2 170312Z 07006KT 25/20 A299 RMK A01 T02450195  RH  074%=      5-min Rain = 0
KST2 170313Z 07006KT 25/20 A299 RMK A01 T02450195  RH  074%=      5-min Rain = 0
KST2 170314Z 07007KT 25/20 A299 RMK A01 T02450195  RH  074%=      5-min Rain = 0
KST2 170315Z 07007KT 25/20 A299 RMK A01 T02450195  RH  074%=      5-min Rain = 0
KST2 170316Z 07006KT 25/20 A299 RMK A01 T02450196  RH  074%=      5-min Rain = 0
KST2 170317Z 07007KT 25/20 A299 RMK A01 T02450196  RH  074%=      5-min Rain = 0
KST2 170318Z 07006KT 24/20 A299 RMK A01 T02440195  RH  074%=      5-min Rain = 0
KST2 170319Z 07007KT 24/20 A299 RMK A01 T02440196  RH  074%=      5-min Rain = 0
KST2 170320Z 08006KT 24/20 A299 RMK A01 T02440196  RH  074%=      5-min Rain = 0
KST2 170321Z 07006KT 24/20 A299 RMK A01 T02440195  RH  074%=      5-min Rain = 0
KST2 170322Z 07007KT 24/20 A299 RMK A01 T02440195  RH  074%=      5-min Rain = 0
KST2 170323Z 07007KT 24/20 A299 RMK A01 T02430195  RH  074%=      5-min Rain = 0
KST2 170324Z 07006KT 24/20 A299 RMK A01 T02430195  RH  074%=      5-min Rain = 0
KST2 170325Z 07006KT 24/20 A299 RMK A01 T02430196  RH  075%=      5-min Rain = 0
KST2 170326Z 07007KT 24/20 A299 RMK A01 T02430195  RH  075%=      5-min Rain = 0
KST2 170327Z 07006KT 24/20 A299 RMK A01 T02430195  RH  075%=      5-min Rain = 0
KST2 170328Z 07007KT 24/20 A299 RMK A01 T02420195  RH  075%=      5-min Rain = 0
KST2 170329Z 07007KT 24/20 A299 RMK A01 T02420195  RH  075%=      5-min Rain = 0
KST2 170330Z 07007KT 24/20 A299 RMK A01 T02420195  RH  075%=      5-min Rain = 0
KST2 170331Z 06008KT 24/20 A299 RMK A01 T02420195  RH  075%=      5-min Rain = 0
KST2 170332Z 06008KT 24/20 A299 RMK A01 T02420195  RH  075%=      5-min Rain = 0
KST2 170333Z 06007KT 24/20 A2989 RMK A01 T02410195  RH  075%=      5-min Rain = 0
KST2 170334Z 06006KT 24/20 A2989 RMK A01 T02410195  RH  076%=      5-min Rain = 0
KST2 170335Z 06007KT 24/20 A2989 RMK A01 T02400195  RH  076%=      5-min Rain = 0
KST2 170336Z 05007KT 24/20 A2989 RMK A01 T02400195  RH  076%=      5-min Rain = 0
KST2 170337Z 05007KT 24/20 A2989 RMK A01 T02400195  RH  076%=      5-min Rain = 0
KST2 170338Z 05006KT 24/20 A2989 RMK A01 T02400195  RH  076%=      5-min Rain = 0
KST2 170339Z 05006KT 24/20 A2989 RMK A01 T02390195  RH  076%=      5-min Rain = 0
KST2 170340Z 05006KT 24/20 A2989 RMK A01 T02390195  RH  076%=      5-min Rain = 0
KST2 170341Z 05006KT 24/20 A2989 RMK A01 T02380195  RH  077%=      5-min Rain = 0
KST2 170342Z 06006KT 24/19 A2989 RMK A01 T02380194  RH  077%=      5-min Rain = 0
KST2 170343Z 06007KT 24/20 A2989 RMK A01 T02370195  RH  077%=      5-min Rain = 0
KST2 170344Z 06007KT 24/20 A2989 RMK A01 T02370195  RH  077%=      5-min Rain = 0
KST2 170345Z 06006KT 24/20 A2989 RMK A01 T02370195  RH  077%=      5-min Rain = 0
KST2 170346Z 07006KT 24/20 A2989 RMK A01 T02370195  RH  077%=      5-min Rain = 0
KST2 170347Z 07006KT 24/20 A2989 RMK A01 T02370195  RH  077%=      5-min Rain = 0
KST2 170348Z 07006KT 24/20 A2989 RMK A01 T02370195  RH  077%=      5-min Rain = 0
KST2 170349Z 07006KT 24/20 A299 RMK A01 T02370195  RH  077%=      5-min Rain = 0
KST2 170350Z 07006KT 24/20 A299 RMK A01 T02370195  RH  077%=      5-min Rain = 0
KST2 170351Z 07006KT 24/20 A299 RMK A01 T02380195  RH  077%=      5-min Rain = 0
KST2 170352Z 08006KT 24/20 A299 RMK A01 T02370195  RH  077%=      5-min Rain = 0
KST2 170353Z 08006KT 24/20 A299 RMK A01 T02380196  RH  077%=      5-min Rain = 0
KST2 170354Z 08007KT 24/20 A299 RMK A01 T02370196  RH  077%=      5-min Rain = 0
KST2 170355Z 08007KT 24/20 A299 RMK A01 T02370196  RH  077%=      5-min Rain = 0
KST2 170356Z 08006KT 24/20 A299 RMK A01 T02370196  RH  078%=      5-min Rain = 0
KST2 170357Z 08006KT 24/20 A299 RMK A01 T02380196  RH  078%=      5-min Rain = 0
KST2 170358Z 08006KT 24/20 A299 RMK A01 T02370196  RH  078%=      5-min Rain = 0
KST2 170359Z 08006KT 24/20 A299 RMK A01 T02370196  RH  078%=      5-min Rain = 0
KST2 170400Z 08006KT 24/20 A299 RMK A01 T02370196  RH  078%=      5-min Rain = 0
KST2 170401Z 07005KT 24/20 A299 RMK A01 T02370196  RH  078%=      5-min Rain = 0
KST2 170402Z 07005KT 24/20 A299 RMK A01 T02370196  RH  078%=      5-min Rain = 0
KST2 170403Z 07005KT 24/20 A299 RMK A01 T02370196  RH  078%=      5-min Rain = 0
KST2 170404Z 07006KT 24/20 A299 RMK A01 T02360196  RH  078%=      5-min Rain = 0
KST2 170405Z 06005KT 24/20 A2989 RMK A01 T02360196  RH  078%=      5-min Rain = 0
KST2 170406Z 07006KT 24/20 A2989 RMK A01 T02360196  RH  078%=      5-min Rain = 0
KST2 170407Z 07006KT 24/20 A299 RMK A01 T02360196  RH  078%=      5-min Rain = 0
KST2 170408Z 07005KT 24/20 A299 RMK A01 T02360196  RH  078%=      5-min Rain = 0
KST2 170409Z 07005KT 24/20 A299 RMK A01 T02350196  RH  078%=      5-min Rain = 0
KST2 170410Z 07007KT 24/20 A299 RMK A01 T02360196  RH  078%=      5-min Rain = 0
KST2 170411Z 06005KT 24/20 A299 RMK A01 T02360196  RH  079%=      5-min Rain = 0
KST2 170412Z 07006KT 24/20 A299 RMK A01 T02360197  RH  079%=      5-min Rain = 0
KST2 170413Z 06005KT 24/20 A299 RMK A01 T02360197  RH  079%=      5-min Rain = 0
KST2 170414Z 06005KT 24/20 A299 RMK A01 T02360197  RH  079%=      5-min Rain = 0
KST2 170415Z 07006KT 24/20 A299 RMK A01 T02360197  RH  079%=      5-min Rain = 0
KST2 170416Z 06005KT 24/20 A299 RMK A01 T02360197  RH  079%=      5-min Rain = 0
KST2 170417Z 06004KT 24/20 A299 RMK A01 T02360197  RH  079%=      5-min Rain = 0
KST2 170418Z 07005KT 24/20 A299 RMK A01 T02350197  RH  079%=      5-min Rain = 0
KST2 170419Z 06004KT 24/20 A299 RMK A01 T02350197  RH  079%=      5-min Rain = 0
KST2 170420Z 06004KT 24/20 A2991 RMK A01 T02350196  RH  079%=      5-min Rain = 0
KST2 170421Z 06004KT 24/20 A2991 RMK A01 T02350197  RH  079%=      5-min Rain = 0
KST2 170422Z 06004KT 24/20 A2991 RMK A01 T02350197  RH  079%=      5-min Rain = 0
KST2 170423Z 06003KT 23/20 A2991 RMK A01 T02340196  RH  079%=      5-min Rain = 0
KST2 170424Z 06003KT 23/20 A2991 RMK A01 T02340196  RH  079%=      5-min Rain = 0
KST2 170425Z 06003KT 23/20 A2991 RMK A01 T02340196  RH  079%=      5-min Rain = 0
KST2 170426Z 07003KT 23/20 A2991 RMK A01 T02340196  RH  080%=      5-min Rain = 0
KST2 170427Z 06003KT 23/20 A2991 RMK A01 T02340197  RH  080%=      5-min Rain = 0
KST2 170428Z 06003KT 23/20 A2991 RMK A01 T02330196  RH  080%=      5-min Rain = 0
KST2 170429Z 07003KT 23/20 A2991 RMK A01 T02320196  RH  080%=      5-min Rain = 0
KST2 170430Z 07003KT 23/20 A2991 RMK A01 T02320196  RH  080%=      5-min Rain = 0
KST2 170431Z 07003KT 23/20 A2991 RMK A01 T02320196  RH  080%=      5-min Rain = 0
KST2 170432Z 07003KT 23/20 A2991 RMK A01 T02320196  RH  080%=      5-min Rain = 0
KST2 170433Z 08003KT 23/20 A2991 RMK A01 T02320196  RH  080%=      5-min Rain = 0
KST2 170434Z 08003KT 23/20 A2991 RMK A01 T02320196  RH  080%=      5-min Rain = 0
KST2 170435Z 08003KT 23/20 A2991 RMK A01 T02320196  RH  080%=      5-min Rain = 0
KST2 170436Z 09003KT 23/20 A2991 RMK A01 T02310196  RH  080%=      5-min Rain = 0
KST2 170437Z 09003KT 23/20 A2991 RMK A01 T02310195  RH  080%=      5-min Rain = 0
KST2 170438Z 09003KT 23/20 A2991 RMK A01 T02310195  RH  080%=      5-min Rain = 0
KST2 170439Z 09003KT 23/20 A2991 RMK A01 T02300195  RH  080%=      5-min Rain = 0
KST2 170440Z 09003KT 23/20 A2991 RMK A01 T02300195  RH  080%=      5-min Rain = 0
KST2 170441Z 10003KT 23/19 A2991 RMK A01 T02300194  RH  081%=      5-min Rain = 0
KST2 170442Z 09003KT 23/19 A2991 RMK A01 T02290194  RH  081%=      5-min Rain = 0
KST2 170443Z 09003KT 23/19 A2991 RMK A01 T02290194  RH  081%=      5-min Rain = 0
KST2 170444Z 09003KT 23/19 A2991 RMK A01 T02290194  RH  081%=      5-min Rain = 0
KST2 170445Z 09003KT 23/19 A2992 RMK A01 T02290194  RH  081%=      5-min Rain = 0
KST2 170446Z 09003KT 23/19 A2992 RMK A01 T02290194  RH  081%=      5-min Rain = 0
KST2 170447Z 08003KT 23/19 A2992 RMK A01 T02290194  RH  081%=      5-min Rain = 0
KST2 170448Z 07003KT 23/19 A2992 RMK A01 T02280194  RH  081%=      5-min Rain = 0
KST2 170449Z 07003KT 23/19 A2992 RMK A01 T02280194  RH  081%=      5-min Rain = 0
KST2 170450Z 06003KT 23/19 A2992 RMK A01 T02280194  RH  081%=      5-min Rain = 0
KST2 170451Z 06003KT 23/19 A2992 RMK A01 T02280194  RH  081%=      5-min Rain = 0
KST2 170452Z 06003KT 23/19 A2992 RMK A01 T02280194  RH  081%=      5-min Rain = 0
KST2 170453Z 05003KT 23/19 A2991 RMK A01 T02270194  RH  082%=      5-min Rain = 0
KST2 170454Z 05003KT 23/19 A2991 RMK A01 T02270194  RH  082%=      5-min Rain = 0
KST2 170455Z 05003KT 23/19 A2991 RMK A01 T02260194  RH  082%=      5-min Rain = 0
KST2 170456Z 04003KT 23/19 A2991 RMK A01 T02250193  RH  082%=      5-min Rain = 0
KST2 170457Z 04003KT 23/19 A2991 RMK A01 T02250193  RH  082%=      5-min Rain = 0
KST2 170458Z 03003KT 22/19 A2991 RMK A01 T02230192  RH  082%=      5-min Rain = 0
KST2 170459Z 03004KT 22/19 A2991 RMK A01 T02230192  RH  083%=      5-min Rain = 0

Page generated in 0.1414 seconds.